<?xml version="1.0" encoding="UTF-8" standalone="no" ?>
<gpx xmlns="http://www.topografix.com/GPX/1/1" xmlns:xsi="http://www.w3.org/2001/XMLSchema-instance" xsi:schemaLocation="http://www.topografix.com/GPX/1/1 http://www.topografix.com/GPX/1/1/gpx.xsd" version="1.1" creator="VisuGPX - https://www.visugpx.com">
  <metadata>
    <name>La Vallée de Lans</name>
    <desc><![CDATA[Petit tour famille entre Lans et Villars]]></desc>
  </metadata>
  <trk>
    <name><![CDATA[LamontagnedelansYsé]]></name>
    <trkseg>
      <trkpt lat="45.12817" lon="5.58828">
        <ele>968.18</ele>
        <time>2019-06-23T08:09:33Z</time>
      </trkpt>
      <trkpt lat="45.12817" lon="5.5883">
        <ele>967.7</ele>
        <time>2019-06-23T08:09:47Z</time>
      </trkpt>
      <trkpt lat="45.12816" lon="5.58835">
        <ele>968.67</ele>
        <time>2019-06-23T08:10:05Z</time>
      </trkpt>
      <trkpt lat="45.12816" lon="5.58836">
        <ele>969.15</ele>
        <time>2019-06-23T08:10:22Z</time>
      </trkpt>
      <trkpt lat="45.12816" lon="5.58836">
        <ele>969.63</ele>
        <time>2019-06-23T08:10:50Z</time>
      </trkpt>
      <trkpt lat="45.12815" lon="5.58838">
        <ele>970.59</ele>
        <time>2019-06-23T08:11:15Z</time>
      </trkpt>
      <trkpt lat="45.12816" lon="5.58833">
        <ele>971.07</ele>
        <time>2019-06-23T08:11:28Z</time>
      </trkpt>
      <trkpt lat="45.12815" lon="5.58833">
        <ele>971.55</ele>
        <time>2019-06-23T08:11:57Z</time>
      </trkpt>
      <trkpt lat="45.12817" lon="5.58836">
        <ele>972.51</ele>
        <time>2019-06-23T08:12:25Z</time>
      </trkpt>
      <trkpt lat="45.12818" lon="5.58837">
        <ele>973.47</ele>
        <time>2019-06-23T08:13:13Z</time>
      </trkpt>
      <trkpt lat="45.12818" lon="5.58839">
        <ele>974.43</ele>
        <time>2019-06-23T08:14:06Z</time>
      </trkpt>
      <trkpt lat="45.12813" lon="5.58837">
        <ele>974.91</ele>
        <time>2019-06-23T08:14:20Z</time>
      </trkpt>
      <trkpt lat="45.12813" lon="5.58836">
        <ele>975.39</ele>
        <time>2019-06-23T08:14:43Z</time>
      </trkpt>
      <trkpt lat="45.12819" lon="5.58833">
        <ele>975.39</ele>
        <time>2019-06-23T08:15:00Z</time>
      </trkpt>
      <trkpt lat="45.12825" lon="5.58832">
        <ele>975.88</ele>
        <time>2019-06-23T08:15:10Z</time>
      </trkpt>
      <trkpt lat="45.12824" lon="5.58848">
        <ele>975.88</ele>
        <time>2019-06-23T08:15:19Z</time>
      </trkpt>
      <trkpt lat="45.12823" lon="5.58854">
        <ele>975.88</ele>
        <time>2019-06-23T08:15:22Z</time>
      </trkpt>
      <trkpt lat="45.12818" lon="5.58872">
        <ele>976.36</ele>
        <time>2019-06-23T08:15:31Z</time>
      </trkpt>
      <trkpt lat="45.1281" lon="5.5888">
        <ele>977.8</ele>
        <time>2019-06-23T08:15:36Z</time>
      </trkpt>
      <trkpt lat="45.12785" lon="5.58894">
        <ele>978.28</ele>
        <time>2019-06-23T08:15:49Z</time>
      </trkpt>
      <trkpt lat="45.12772" lon="5.58898">
        <ele>978.28</ele>
        <time>2019-06-23T08:15:55Z</time>
      </trkpt>
      <trkpt lat="45.12769" lon="5.58899">
        <ele>978.28</ele>
        <time>2019-06-23T08:15:56Z</time>
      </trkpt>
      <trkpt lat="45.12734" lon="5.58908">
        <ele>979.24</ele>
        <time>2019-06-23T08:16:11Z</time>
      </trkpt>
      <trkpt lat="45.12702" lon="5.5893">
        <ele>979.72</ele>
        <time>2019-06-23T08:16:24Z</time>
      </trkpt>
      <trkpt lat="45.12648" lon="5.58974">
        <ele>981.16</ele>
        <time>2019-06-23T08:16:45Z</time>
      </trkpt>
      <trkpt lat="45.12607" lon="5.59003">
        <ele>982.12</ele>
        <time>2019-06-23T08:17:01Z</time>
      </trkpt>
      <trkpt lat="45.12562" lon="5.59005">
        <ele>982.6</ele>
        <time>2019-06-23T08:17:17Z</time>
      </trkpt>
      <trkpt lat="45.12519" lon="5.59016">
        <ele>983.57</ele>
        <time>2019-06-23T08:17:31Z</time>
      </trkpt>
      <trkpt lat="45.12507" lon="5.5902">
        <ele>982.12</ele>
        <time>2019-06-23T08:17:34Z</time>
      </trkpt>
      <trkpt lat="45.12456" lon="5.59053">
        <ele>979.24</ele>
        <time>2019-06-23T08:17:46Z</time>
      </trkpt>
      <trkpt lat="45.12451" lon="5.59056">
        <ele>978.76</ele>
        <time>2019-06-23T08:17:47Z</time>
      </trkpt>
      <trkpt lat="45.12446" lon="5.59058">
        <ele>978.76</ele>
        <time>2019-06-23T08:17:48Z</time>
      </trkpt>
      <trkpt lat="45.12441" lon="5.5906">
        <ele>978.76</ele>
        <time>2019-06-23T08:17:49Z</time>
      </trkpt>
      <trkpt lat="45.12434" lon="5.59061">
        <ele>977.8</ele>
        <time>2019-06-23T08:17:50Z</time>
      </trkpt>
      <trkpt lat="45.12429" lon="5.59062">
        <ele>977.8</ele>
        <time>2019-06-23T08:17:51Z</time>
      </trkpt>
      <trkpt lat="45.1237" lon="5.59061">
        <ele>977.32</ele>
        <time>2019-06-23T08:18:02Z</time>
      </trkpt>
      <trkpt lat="45.12365" lon="5.59058">
        <ele>977.32</ele>
        <time>2019-06-23T08:18:03Z</time>
      </trkpt>
      <trkpt lat="45.12324" lon="5.59027">
        <ele>978.28</ele>
        <time>2019-06-23T08:18:14Z</time>
      </trkpt>
      <trkpt lat="45.12275" lon="5.5896">
        <ele>980.68</ele>
        <time>2019-06-23T08:18:34Z</time>
      </trkpt>
      <trkpt lat="45.12235" lon="5.58885">
        <ele>981.16</ele>
        <time>2019-06-23T08:18:53Z</time>
      </trkpt>
      <trkpt lat="45.12199" lon="5.58821">
        <ele>981.64</ele>
        <time>2019-06-23T08:19:09Z</time>
      </trkpt>
      <trkpt lat="45.12164" lon="5.58776">
        <ele>983.09</ele>
        <time>2019-06-23T08:19:24Z</time>
      </trkpt>
      <trkpt lat="45.12116" lon="5.5875">
        <ele>984.05</ele>
        <time>2019-06-23T08:19:39Z</time>
      </trkpt>
      <trkpt lat="45.12055" lon="5.58737">
        <ele>984.53</ele>
        <time>2019-06-23T08:19:56Z</time>
      </trkpt>
      <trkpt lat="45.11985" lon="5.58741">
        <ele>986.45</ele>
        <time>2019-06-23T08:20:17Z</time>
      </trkpt>
      <trkpt lat="45.11954" lon="5.58725">
        <ele>988.37</ele>
        <time>2019-06-23T08:20:29Z</time>
      </trkpt>
      <trkpt lat="45.1194" lon="5.58675">
        <ele>988.37</ele>
        <time>2019-06-23T08:20:41Z</time>
      </trkpt>
      <trkpt lat="45.11941" lon="5.58622">
        <ele>988.85</ele>
        <time>2019-06-23T08:20:53Z</time>
      </trkpt>
      <trkpt lat="45.11942" lon="5.58604">
        <ele>989.33</ele>
        <time>2019-06-23T08:20:58Z</time>
      </trkpt>
      <trkpt lat="45.11941" lon="5.58601">
        <ele>989.33</ele>
        <time>2019-06-23T08:20:59Z</time>
      </trkpt>
      <trkpt lat="45.11926" lon="5.58536">
        <ele>991.26</ele>
        <time>2019-06-23T08:21:17Z</time>
      </trkpt>
      <trkpt lat="45.11904" lon="5.58519">
        <ele>992.7</ele>
        <time>2019-06-23T08:21:29Z</time>
      </trkpt>
      <trkpt lat="45.11863" lon="5.58557">
        <ele>993.18</ele>
        <time>2019-06-23T08:21:44Z</time>
      </trkpt>
      <trkpt lat="45.11827" lon="5.58554">
        <ele>995.1</ele>
        <time>2019-06-23T08:21:58Z</time>
      </trkpt>
      <trkpt lat="45.11782" lon="5.58532">
        <ele>993.66</ele>
        <time>2019-06-23T08:22:12Z</time>
      </trkpt>
      <trkpt lat="45.11759" lon="5.58502">
        <ele>991.74</ele>
        <time>2019-06-23T08:22:24Z</time>
      </trkpt>
      <trkpt lat="45.11757" lon="5.58502">
        <ele>991.26</ele>
        <time>2019-06-23T08:22:25Z</time>
      </trkpt>
      <trkpt lat="45.11756" lon="5.58502">
        <ele>991.26</ele>
        <time>2019-06-23T08:22:26Z</time>
      </trkpt>
      <trkpt lat="45.11758" lon="5.58506">
        <ele>991.26</ele>
        <time>2019-06-23T08:22:30Z</time>
      </trkpt>
      <trkpt lat="45.11761" lon="5.58509">
        <ele>991.74</ele>
        <time>2019-06-23T08:22:32Z</time>
      </trkpt>
      <trkpt lat="45.11762" lon="5.5851">
        <ele>991.74</ele>
        <time>2019-06-23T08:22:33Z</time>
      </trkpt>
      <trkpt lat="45.11767" lon="5.58518">
        <ele>993.18</ele>
        <time>2019-06-23T08:22:38Z</time>
      </trkpt>
      <trkpt lat="45.11782" lon="5.58543">
        <ele>995.1</ele>
        <time>2019-06-23T08:22:53Z</time>
      </trkpt>
      <trkpt lat="45.11781" lon="5.58545">
        <ele>995.58</ele>
        <time>2019-06-23T08:22:56Z</time>
      </trkpt>
      <trkpt lat="45.1178" lon="5.58546">
        <ele>995.58</ele>
        <time>2019-06-23T08:22:57Z</time>
      </trkpt>
      <trkpt lat="45.11772" lon="5.5855">
        <ele>996.06</ele>
        <time>2019-06-23T08:23:04Z</time>
      </trkpt>
      <trkpt lat="45.11771" lon="5.58552">
        <ele>996.06</ele>
        <time>2019-06-23T08:23:05Z</time>
      </trkpt>
      <trkpt lat="45.1177" lon="5.58553">
        <ele>996.06</ele>
        <time>2019-06-23T08:23:06Z</time>
      </trkpt>
      <trkpt lat="45.11755" lon="5.58557">
        <ele>998.95</ele>
        <time>2019-06-23T08:23:21Z</time>
      </trkpt>
      <trkpt lat="45.11739" lon="5.58558">
        <ele>1001.35</ele>
        <time>2019-06-23T08:23:35Z</time>
      </trkpt>
      <trkpt lat="45.1172" lon="5.58552">
        <ele>1004.72</ele>
        <time>2019-06-23T08:23:52Z</time>
      </trkpt>
      <trkpt lat="45.11703" lon="5.58551">
        <ele>1006.16</ele>
        <time>2019-06-23T08:24:06Z</time>
      </trkpt>
      <trkpt lat="45.11679" lon="5.58559">
        <ele>1008.08</ele>
        <time>2019-06-23T08:24:23Z</time>
      </trkpt>
      <trkpt lat="45.11656" lon="5.58575">
        <ele>1010.48</ele>
        <time>2019-06-23T08:24:41Z</time>
      </trkpt>
      <trkpt lat="45.1164" lon="5.5859">
        <ele>1012.89</ele>
        <time>2019-06-23T08:24:57Z</time>
      </trkpt>
      <trkpt lat="45.11627" lon="5.58605">
        <ele>1016.25</ele>
        <time>2019-06-23T08:25:11Z</time>
      </trkpt>
      <trkpt lat="45.11609" lon="5.5861">
        <ele>1019.13</ele>
        <time>2019-06-23T08:25:26Z</time>
      </trkpt>
      <trkpt lat="45.11589" lon="5.58604">
        <ele>1021.54</ele>
        <time>2019-06-23T08:25:42Z</time>
      </trkpt>
      <trkpt lat="45.11562" lon="5.58595">
        <ele>1022.98</ele>
        <time>2019-06-23T08:26:00Z</time>
      </trkpt>
      <trkpt lat="45.11535" lon="5.58589">
        <ele>1025.38</ele>
        <time>2019-06-23T08:26:17Z</time>
      </trkpt>
      <trkpt lat="45.11504" lon="5.586">
        <ele>1024.42</ele>
        <time>2019-06-23T08:26:31Z</time>
      </trkpt>
      <trkpt lat="45.115" lon="5.58601">
        <ele>1024.42</ele>
        <time>2019-06-23T08:26:32Z</time>
      </trkpt>
      <trkpt lat="45.11462" lon="5.58614">
        <ele>1022.98</ele>
        <time>2019-06-23T08:26:43Z</time>
      </trkpt>
      <trkpt lat="45.11441" lon="5.58622">
        <ele>1022.02</ele>
        <time>2019-06-23T08:26:53Z</time>
      </trkpt>
      <trkpt lat="45.11439" lon="5.58631">
        <ele>1023.46</ele>
        <time>2019-06-23T08:27:00Z</time>
      </trkpt>
      <trkpt lat="45.11438" lon="5.58632">
        <ele>1023.46</ele>
        <time>2019-06-23T08:27:01Z</time>
      </trkpt>
      <trkpt lat="45.11437" lon="5.58643">
        <ele>1025.38</ele>
        <time>2019-06-23T08:27:10Z</time>
      </trkpt>
      <trkpt lat="45.11436" lon="5.58645">
        <ele>1025.86</ele>
        <time>2019-06-23T08:27:11Z</time>
      </trkpt>
      <trkpt lat="45.11429" lon="5.58654">
        <ele>1027.31</ele>
        <time>2019-06-23T08:27:21Z</time>
      </trkpt>
      <trkpt lat="45.11428" lon="5.58654">
        <ele>1028.27</ele>
        <time>2019-06-23T08:27:22Z</time>
      </trkpt>
      <trkpt lat="45.11427" lon="5.58655">
        <ele>1028.27</ele>
        <time>2019-06-23T08:27:23Z</time>
      </trkpt>
      <trkpt lat="45.11426" lon="5.58656">
        <ele>1028.27</ele>
        <time>2019-06-23T08:27:24Z</time>
      </trkpt>
      <trkpt lat="45.11419" lon="5.58658">
        <ele>1029.23</ele>
        <time>2019-06-23T08:27:31Z</time>
      </trkpt>
      <trkpt lat="45.11418" lon="5.58658">
        <ele>1029.23</ele>
        <time>2019-06-23T08:27:32Z</time>
      </trkpt>
      <trkpt lat="45.11412" lon="5.58658">
        <ele>1030.67</ele>
        <time>2019-06-23T08:27:38Z</time>
      </trkpt>
      <trkpt lat="45.114" lon="5.58659">
        <ele>1031.63</ele>
        <time>2019-06-23T08:27:53Z</time>
      </trkpt>
      <trkpt lat="45.11395" lon="5.58658">
        <ele>1032.11</ele>
        <time>2019-06-23T08:28:28Z</time>
      </trkpt>
      <trkpt lat="45.1138" lon="5.58649">
        <ele>1034.52</ele>
        <time>2019-06-23T08:28:43Z</time>
      </trkpt>
      <trkpt lat="45.11363" lon="5.58645">
        <ele>1036.44</ele>
        <time>2019-06-23T08:28:58Z</time>
      </trkpt>
      <trkpt lat="45.11337" lon="5.58644">
        <ele>1037.4</ele>
        <time>2019-06-23T08:29:13Z</time>
      </trkpt>
      <trkpt lat="45.11335" lon="5.58643">
        <ele>1037.4</ele>
        <time>2019-06-23T08:29:15Z</time>
      </trkpt>
      <trkpt lat="45.11333" lon="5.58643">
        <ele>1037.4</ele>
        <time>2019-06-23T08:29:16Z</time>
      </trkpt>
      <trkpt lat="45.1132" lon="5.58639">
        <ele>1039.32</ele>
        <time>2019-06-23T08:29:28Z</time>
      </trkpt>
      <trkpt lat="45.11319" lon="5.58639">
        <ele>1039.32</ele>
        <time>2019-06-23T08:29:29Z</time>
      </trkpt>
      <trkpt lat="45.11314" lon="5.5864">
        <ele>1039.8</ele>
        <time>2019-06-23T08:29:34Z</time>
      </trkpt>
      <trkpt lat="45.11313" lon="5.5864">
        <ele>1040.28</ele>
        <time>2019-06-23T08:29:35Z</time>
      </trkpt>
      <trkpt lat="45.11312" lon="5.5864">
        <ele>1040.28</ele>
        <time>2019-06-23T08:29:36Z</time>
      </trkpt>
      <trkpt lat="45.11295" lon="5.58638">
        <ele>1040.76</ele>
        <time>2019-06-23T08:29:49Z</time>
      </trkpt>
      <trkpt lat="45.1128" lon="5.58637">
        <ele>1042.69</ele>
        <time>2019-06-23T08:30:04Z</time>
      </trkpt>
      <trkpt lat="45.11268" lon="5.58637">
        <ele>1043.65</ele>
        <time>2019-06-23T08:30:15Z</time>
      </trkpt>
      <trkpt lat="45.11252" lon="5.58643">
        <ele>1045.57</ele>
        <time>2019-06-23T08:30:28Z</time>
      </trkpt>
      <trkpt lat="45.11238" lon="5.58649">
        <ele>1047.01</ele>
        <time>2019-06-23T08:30:41Z</time>
      </trkpt>
      <trkpt lat="45.1123" lon="5.58651">
        <ele>1047.97</ele>
        <time>2019-06-23T08:30:52Z</time>
      </trkpt>
      <trkpt lat="45.11227" lon="5.58651">
        <ele>1048.45</ele>
        <time>2019-06-23T08:31:10Z</time>
      </trkpt>
      <trkpt lat="45.11225" lon="5.58643">
        <ele>1048.45</ele>
        <time>2019-06-23T08:31:28Z</time>
      </trkpt>
      <trkpt lat="45.1123" lon="5.58649">
        <ele>1049.42</ele>
        <time>2019-06-23T08:32:01Z</time>
      </trkpt>
      <trkpt lat="45.1123" lon="5.58644">
        <ele>1049.9</ele>
        <time>2019-06-23T08:32:30Z</time>
      </trkpt>
      <trkpt lat="45.11228" lon="5.58639">
        <ele>1050.38</ele>
        <time>2019-06-23T08:32:57Z</time>
      </trkpt>
      <trkpt lat="45.11222" lon="5.5865">
        <ele>1051.34</ele>
        <time>2019-06-23T08:33:31Z</time>
      </trkpt>
      <trkpt lat="45.11225" lon="5.58641">
        <ele>1049.9</ele>
        <time>2019-06-23T08:33:46Z</time>
      </trkpt>
      <trkpt lat="45.11225" lon="5.58635">
        <ele>1050.86</ele>
        <time>2019-06-23T08:34:22Z</time>
      </trkpt>
      <trkpt lat="45.11224" lon="5.58635">
        <ele>1051.82</ele>
        <time>2019-06-23T08:35:01Z</time>
      </trkpt>
      <trkpt lat="45.11226" lon="5.58636">
        <ele>1052.3</ele>
        <time>2019-06-23T08:35:17Z</time>
      </trkpt>
      <trkpt lat="45.11223" lon="5.58639">
        <ele>1052.78</ele>
        <time>2019-06-23T08:35:36Z</time>
      </trkpt>
      <trkpt lat="45.11218" lon="5.58639">
        <ele>1054.22</ele>
        <time>2019-06-23T08:35:43Z</time>
      </trkpt>
      <trkpt lat="45.11203" lon="5.58641">
        <ele>1056.63</ele>
        <time>2019-06-23T08:35:57Z</time>
      </trkpt>
      <trkpt lat="45.11193" lon="5.58644">
        <ele>1059.51</ele>
        <time>2019-06-23T08:36:11Z</time>
      </trkpt>
      <trkpt lat="45.1118" lon="5.58649">
        <ele>1061.43</ele>
        <time>2019-06-23T08:36:23Z</time>
      </trkpt>
      <trkpt lat="45.11164" lon="5.5865">
        <ele>1062.87</ele>
        <time>2019-06-23T08:36:37Z</time>
      </trkpt>
      <trkpt lat="45.11148" lon="5.58652">
        <ele>1064.8</ele>
        <time>2019-06-23T08:36:51Z</time>
      </trkpt>
      <trkpt lat="45.11135" lon="5.58656">
        <ele>1066.24</ele>
        <time>2019-06-23T08:37:04Z</time>
      </trkpt>
      <trkpt lat="45.11119" lon="5.58659">
        <ele>1067.68</ele>
        <time>2019-06-23T08:37:18Z</time>
      </trkpt>
      <trkpt lat="45.11106" lon="5.58661">
        <ele>1069.6</ele>
        <time>2019-06-23T08:37:30Z</time>
      </trkpt>
      <trkpt lat="45.11093" lon="5.58663">
        <ele>1071.05</ele>
        <time>2019-06-23T08:37:42Z</time>
      </trkpt>
      <trkpt lat="45.11084" lon="5.58662">
        <ele>1072.01</ele>
        <time>2019-06-23T08:37:53Z</time>
      </trkpt>
      <trkpt lat="45.11073" lon="5.58661">
        <ele>1072.97</ele>
        <time>2019-06-23T08:38:11Z</time>
      </trkpt>
      <trkpt lat="45.11053" lon="5.58656">
        <ele>1072.97</ele>
        <time>2019-06-23T08:38:26Z</time>
      </trkpt>
      <trkpt lat="45.11028" lon="5.58648">
        <ele>1071.05</ele>
        <time>2019-06-23T08:38:36Z</time>
      </trkpt>
      <trkpt lat="45.11026" lon="5.58647">
        <ele>1071.05</ele>
        <time>2019-06-23T08:38:37Z</time>
      </trkpt>
      <trkpt lat="45.11012" lon="5.58647">
        <ele>1071.53</ele>
        <time>2019-06-23T08:38:48Z</time>
      </trkpt>
      <trkpt lat="45.10985" lon="5.58636">
        <ele>1068.64</ele>
        <time>2019-06-23T08:39:03Z</time>
      </trkpt>
      <trkpt lat="45.10959" lon="5.58637">
        <ele>1068.16</ele>
        <time>2019-06-23T08:39:14Z</time>
      </trkpt>
      <trkpt lat="45.10931" lon="5.58649">
        <ele>1067.2</ele>
        <time>2019-06-23T08:39:27Z</time>
      </trkpt>
      <trkpt lat="45.10908" lon="5.5866">
        <ele>1065.76</ele>
        <time>2019-06-23T08:39:39Z</time>
      </trkpt>
      <trkpt lat="45.10885" lon="5.58673">
        <ele>1065.76</ele>
        <time>2019-06-23T08:39:52Z</time>
      </trkpt>
      <trkpt lat="45.10864" lon="5.58682">
        <ele>1065.76</ele>
        <time>2019-06-23T08:40:03Z</time>
      </trkpt>
      <trkpt lat="45.10829" lon="5.58683">
        <ele>1063.84</ele>
        <time>2019-06-23T08:40:14Z</time>
      </trkpt>
      <trkpt lat="45.10798" lon="5.58675">
        <ele>1063.36</ele>
        <time>2019-06-23T08:40:27Z</time>
      </trkpt>
      <trkpt lat="45.10788" lon="5.58677">
        <ele>1064.8</ele>
        <time>2019-06-23T08:40:35Z</time>
      </trkpt>
      <trkpt lat="45.10777" lon="5.58674">
        <ele>1063.36</ele>
        <time>2019-06-23T08:40:41Z</time>
      </trkpt>
      <trkpt lat="45.10767" lon="5.58656">
        <ele>1060.95</ele>
        <time>2019-06-23T08:40:49Z</time>
      </trkpt>
      <trkpt lat="45.10765" lon="5.58655">
        <ele>1060.47</ele>
        <time>2019-06-23T08:40:50Z</time>
      </trkpt>
      <trkpt lat="45.10745" lon="5.58643">
        <ele>1057.11</ele>
        <time>2019-06-23T08:41:00Z</time>
      </trkpt>
      <trkpt lat="45.1072" lon="5.58647">
        <ele>1053.74</ele>
        <time>2019-06-23T08:41:10Z</time>
      </trkpt>
      <trkpt lat="45.10678" lon="5.58648">
        <ele>1050.38</ele>
        <time>2019-06-23T08:41:23Z</time>
      </trkpt>
      <trkpt lat="45.10658" lon="5.58639">
        <ele>1049.9</ele>
        <time>2019-06-23T08:41:31Z</time>
      </trkpt>
      <trkpt lat="45.10655" lon="5.58602">
        <ele>1046.53</ele>
        <time>2019-06-23T08:41:40Z</time>
      </trkpt>
      <trkpt lat="45.10654" lon="5.58559">
        <ele>1044.61</ele>
        <time>2019-06-23T08:41:48Z</time>
      </trkpt>
      <trkpt lat="45.10646" lon="5.58536">
        <ele>1045.09</ele>
        <time>2019-06-23T08:41:58Z</time>
      </trkpt>
      <trkpt lat="45.10645" lon="5.58534">
        <ele>1045.09</ele>
        <time>2019-06-23T08:42:08Z</time>
      </trkpt>
      <trkpt lat="45.10637" lon="5.58534">
        <ele>1046.53</ele>
        <time>2019-06-23T08:42:16Z</time>
      </trkpt>
      <trkpt lat="45.10636" lon="5.58533">
        <ele>1046.05</ele>
        <time>2019-06-23T08:42:17Z</time>
      </trkpt>
      <trkpt lat="45.10623" lon="5.5852">
        <ele>1048.94</ele>
        <time>2019-06-23T08:42:32Z</time>
      </trkpt>
      <trkpt lat="45.10608" lon="5.58514">
        <ele>1050.86</ele>
        <time>2019-06-23T08:42:45Z</time>
      </trkpt>
      <trkpt lat="45.10597" lon="5.58512">
        <ele>1052.3</ele>
        <time>2019-06-23T08:42:54Z</time>
      </trkpt>
      <trkpt lat="45.10596" lon="5.58511">
        <ele>1052.3</ele>
        <time>2019-06-23T08:42:55Z</time>
      </trkpt>
      <trkpt lat="45.10595" lon="5.5851">
        <ele>1052.3</ele>
        <time>2019-06-23T08:42:56Z</time>
      </trkpt>
      <trkpt lat="45.1059" lon="5.58507">
        <ele>1052.3</ele>
        <time>2019-06-23T08:42:59Z</time>
      </trkpt>
      <trkpt lat="45.10573" lon="5.58498">
        <ele>1052.78</ele>
        <time>2019-06-23T08:43:10Z</time>
      </trkpt>
      <trkpt lat="45.10572" lon="5.58498">
        <ele>1052.78</ele>
        <time>2019-06-23T08:43:11Z</time>
      </trkpt>
      <trkpt lat="45.1057" lon="5.58497">
        <ele>1052.78</ele>
        <time>2019-06-23T08:43:12Z</time>
      </trkpt>
      <trkpt lat="45.10568" lon="5.58497">
        <ele>1052.78</ele>
        <time>2019-06-23T08:43:13Z</time>
      </trkpt>
      <trkpt lat="45.10566" lon="5.58496">
        <ele>1053.26</ele>
        <time>2019-06-23T08:43:14Z</time>
      </trkpt>
      <trkpt lat="45.10565" lon="5.58496">
        <ele>1053.26</ele>
        <time>2019-06-23T08:43:15Z</time>
      </trkpt>
      <trkpt lat="45.10564" lon="5.58495">
        <ele>1053.26</ele>
        <time>2019-06-23T08:43:16Z</time>
      </trkpt>
      <trkpt lat="45.10562" lon="5.58495">
        <ele>1053.26</ele>
        <time>2019-06-23T08:43:17Z</time>
      </trkpt>
      <trkpt lat="45.1056" lon="5.58495">
        <ele>1053.74</ele>
        <time>2019-06-23T08:43:18Z</time>
      </trkpt>
      <trkpt lat="45.10551" lon="5.58493">
        <ele>1054.22</ele>
        <time>2019-06-23T08:43:24Z</time>
      </trkpt>
      <trkpt lat="45.1055" lon="5.58492">
        <ele>1054.22</ele>
        <time>2019-06-23T08:43:25Z</time>
      </trkpt>
      <trkpt lat="45.10531" lon="5.58491">
        <ele>1055.67</ele>
        <time>2019-06-23T08:43:36Z</time>
      </trkpt>
      <trkpt lat="45.10529" lon="5.58491">
        <ele>1055.67</ele>
        <time>2019-06-23T08:43:37Z</time>
      </trkpt>
      <trkpt lat="45.10527" lon="5.58491">
        <ele>1055.67</ele>
        <time>2019-06-23T08:43:38Z</time>
      </trkpt>
      <trkpt lat="45.10525" lon="5.58491">
        <ele>1055.67</ele>
        <time>2019-06-23T08:43:39Z</time>
      </trkpt>
      <trkpt lat="45.10523" lon="5.5849">
        <ele>1055.67</ele>
        <time>2019-06-23T08:43:40Z</time>
      </trkpt>
      <trkpt lat="45.10486" lon="5.58484">
        <ele>1054.22</ele>
        <time>2019-06-23T08:43:52Z</time>
      </trkpt>
      <trkpt lat="45.10466" lon="5.58484">
        <ele>1053.74</ele>
        <time>2019-06-23T08:43:56Z</time>
      </trkpt>
      <trkpt lat="45.10461" lon="5.58485">
        <ele>1053.26</ele>
        <time>2019-06-23T08:43:57Z</time>
      </trkpt>
      <trkpt lat="45.10456" lon="5.58487">
        <ele>1053.26</ele>
        <time>2019-06-23T08:43:58Z</time>
      </trkpt>
      <trkpt lat="45.10425" lon="5.58497">
        <ele>1052.78</ele>
        <time>2019-06-23T08:44:04Z</time>
      </trkpt>
      <trkpt lat="45.10392" lon="5.58493">
        <ele>1054.7</ele>
        <time>2019-06-23T08:44:15Z</time>
      </trkpt>
      <trkpt lat="45.1036" lon="5.58481">
        <ele>1056.63</ele>
        <time>2019-06-23T08:44:32Z</time>
      </trkpt>
      <trkpt lat="45.10322" lon="5.58477">
        <ele>1057.11</ele>
        <time>2019-06-23T08:44:49Z</time>
      </trkpt>
      <trkpt lat="45.10287" lon="5.58486">
        <ele>1059.03</ele>
        <time>2019-06-23T08:45:05Z</time>
      </trkpt>
      <trkpt lat="45.10265" lon="5.58505">
        <ele>1062.39</ele>
        <time>2019-06-23T08:45:21Z</time>
      </trkpt>
      <trkpt lat="45.10248" lon="5.5852">
        <ele>1065.28</ele>
        <time>2019-06-23T08:45:34Z</time>
      </trkpt>
      <trkpt lat="45.10246" lon="5.58522">
        <ele>1065.28</ele>
        <time>2019-06-23T08:45:35Z</time>
      </trkpt>
      <trkpt lat="45.10245" lon="5.58522">
        <ele>1065.28</ele>
        <time>2019-06-23T08:45:36Z</time>
      </trkpt>
      <trkpt lat="45.10244" lon="5.58523">
        <ele>1065.76</ele>
        <time>2019-06-23T08:45:37Z</time>
      </trkpt>
      <trkpt lat="45.10242" lon="5.58524">
        <ele>1065.76</ele>
        <time>2019-06-23T08:45:38Z</time>
      </trkpt>
      <trkpt lat="45.10241" lon="5.58525">
        <ele>1065.76</ele>
        <time>2019-06-23T08:45:39Z</time>
      </trkpt>
      <trkpt lat="45.10239" lon="5.58526">
        <ele>1065.76</ele>
        <time>2019-06-23T08:45:40Z</time>
      </trkpt>
      <trkpt lat="45.10208" lon="5.58522">
        <ele>1065.28</ele>
        <time>2019-06-23T08:45:53Z</time>
      </trkpt>
      <trkpt lat="45.10183" lon="5.58515">
        <ele>1066.24</ele>
        <time>2019-06-23T08:46:06Z</time>
      </trkpt>
      <trkpt lat="45.10167" lon="5.5852">
        <ele>1067.2</ele>
        <time>2019-06-23T08:46:18Z</time>
      </trkpt>
      <trkpt lat="45.10167" lon="5.58522">
        <ele>1067.68</ele>
        <time>2019-06-23T08:46:19Z</time>
      </trkpt>
      <trkpt lat="45.10168" lon="5.58523">
        <ele>1067.68</ele>
        <time>2019-06-23T08:46:20Z</time>
      </trkpt>
      <trkpt lat="45.10169" lon="5.58525">
        <ele>1067.68</ele>
        <time>2019-06-23T08:46:21Z</time>
      </trkpt>
      <trkpt lat="45.1017" lon="5.58525">
        <ele>1067.68</ele>
        <time>2019-06-23T08:46:22Z</time>
      </trkpt>
      <trkpt lat="45.10179" lon="5.58527">
        <ele>1068.64</ele>
        <time>2019-06-23T08:46:34Z</time>
      </trkpt>
      <trkpt lat="45.10157" lon="5.58507">
        <ele>1067.2</ele>
        <time>2019-06-23T08:46:45Z</time>
      </trkpt>
      <trkpt lat="45.10123" lon="5.58488">
        <ele>1065.76</ele>
        <time>2019-06-23T08:46:56Z</time>
      </trkpt>
      <trkpt lat="45.10091" lon="5.58475">
        <ele>1062.39</ele>
        <time>2019-06-23T08:47:06Z</time>
      </trkpt>
      <trkpt lat="45.10064" lon="5.58465">
        <ele>1059.03</ele>
        <time>2019-06-23T08:47:13Z</time>
      </trkpt>
      <trkpt lat="45.10047" lon="5.58455">
        <ele>1056.63</ele>
        <time>2019-06-23T08:47:17Z</time>
      </trkpt>
      <trkpt lat="45.10027" lon="5.58446">
        <ele>1055.67</ele>
        <time>2019-06-23T08:47:27Z</time>
      </trkpt>
      <trkpt lat="45.09999" lon="5.58445">
        <ele>1054.22</ele>
        <time>2019-06-23T08:47:38Z</time>
      </trkpt>
      <trkpt lat="45.09997" lon="5.58444">
        <ele>1054.22</ele>
        <time>2019-06-23T08:47:39Z</time>
      </trkpt>
      <trkpt lat="45.09995" lon="5.58442">
        <ele>1053.74</ele>
        <time>2019-06-23T08:47:53Z</time>
      </trkpt>
      <trkpt lat="45.09995" lon="5.5844">
        <ele>1054.22</ele>
        <time>2019-06-23T08:48:15Z</time>
      </trkpt>
      <trkpt lat="45.09994" lon="5.58438">
        <ele>1054.22</ele>
        <time>2019-06-23T08:48:36Z</time>
      </trkpt>
      <trkpt lat="45.09991" lon="5.58438">
        <ele>1054.22</ele>
        <time>2019-06-23T08:49:01Z</time>
      </trkpt>
      <trkpt lat="45.09984" lon="5.58433">
        <ele>1053.74</ele>
        <time>2019-06-23T08:49:17Z</time>
      </trkpt>
      <trkpt lat="45.09964" lon="5.58401">
        <ele>1049.9</ele>
        <time>2019-06-23T08:49:25Z</time>
      </trkpt>
      <trkpt lat="45.09962" lon="5.58396">
        <ele>1049.9</ele>
        <time>2019-06-23T08:49:26Z</time>
      </trkpt>
      <trkpt lat="45.09954" lon="5.58378">
        <ele>1048.94</ele>
        <time>2019-06-23T08:49:29Z</time>
      </trkpt>
      <trkpt lat="45.0994" lon="5.58351">
        <ele>1047.01</ele>
        <time>2019-06-23T08:49:34Z</time>
      </trkpt>
      <trkpt lat="45.09937" lon="5.58346">
        <ele>1047.01</ele>
        <time>2019-06-23T08:49:35Z</time>
      </trkpt>
      <trkpt lat="45.09925" lon="5.58334">
        <ele>1046.05</ele>
        <time>2019-06-23T08:49:38Z</time>
      </trkpt>
      <trkpt lat="45.09921" lon="5.58331">
        <ele>1046.05</ele>
        <time>2019-06-23T08:49:39Z</time>
      </trkpt>
      <trkpt lat="45.09869" lon="5.58293">
        <ele>1042.69</ele>
        <time>2019-06-23T08:49:51Z</time>
      </trkpt>
      <trkpt lat="45.09843" lon="5.58258">
        <ele>1038.84</ele>
        <time>2019-06-23T08:49:58Z</time>
      </trkpt>
      <trkpt lat="45.09823" lon="5.58227">
        <ele>1035.96</ele>
        <time>2019-06-23T08:50:04Z</time>
      </trkpt>
      <trkpt lat="45.0982" lon="5.58222">
        <ele>1035.48</ele>
        <time>2019-06-23T08:50:05Z</time>
      </trkpt>
      <trkpt lat="45.09818" lon="5.58217">
        <ele>1035</ele>
        <time>2019-06-23T08:50:06Z</time>
      </trkpt>
      <trkpt lat="45.09817" lon="5.58211">
        <ele>1034.04</ele>
        <time>2019-06-23T08:50:07Z</time>
      </trkpt>
      <trkpt lat="45.09817" lon="5.58205">
        <ele>1033.55</ele>
        <time>2019-06-23T08:50:08Z</time>
      </trkpt>
      <trkpt lat="45.09818" lon="5.58198">
        <ele>1033.07</ele>
        <time>2019-06-23T08:50:09Z</time>
      </trkpt>
      <trkpt lat="45.0982" lon="5.58192">
        <ele>1032.11</ele>
        <time>2019-06-23T08:50:10Z</time>
      </trkpt>
      <trkpt lat="45.09823" lon="5.58185">
        <ele>1031.63</ele>
        <time>2019-06-23T08:50:11Z</time>
      </trkpt>
      <trkpt lat="45.09826" lon="5.58179">
        <ele>1031.15</ele>
        <time>2019-06-23T08:50:12Z</time>
      </trkpt>
      <trkpt lat="45.09841" lon="5.58154">
        <ele>1028.75</ele>
        <time>2019-06-23T08:50:16Z</time>
      </trkpt>
      <trkpt lat="45.09845" lon="5.58147">
        <ele>1028.75</ele>
        <time>2019-06-23T08:50:17Z</time>
      </trkpt>
      <trkpt lat="45.09847" lon="5.58139">
        <ele>1027.79</ele>
        <time>2019-06-23T08:50:18Z</time>
      </trkpt>
      <trkpt lat="45.09857" lon="5.58107">
        <ele>1026.34</ele>
        <time>2019-06-23T08:50:22Z</time>
      </trkpt>
      <trkpt lat="45.09868" lon="5.5805">
        <ele>1022.98</ele>
        <time>2019-06-23T08:50:29Z</time>
      </trkpt>
      <trkpt lat="45.09874" lon="5.58011">
        <ele>1021.54</ele>
        <time>2019-06-23T08:50:34Z</time>
      </trkpt>
      <trkpt lat="45.09876" lon="5.58004">
        <ele>1021.06</ele>
        <time>2019-06-23T08:50:35Z</time>
      </trkpt>
      <trkpt lat="45.09887" lon="5.57968">
        <ele>1020.1</ele>
        <time>2019-06-23T08:50:43Z</time>
      </trkpt>
      <trkpt lat="45.09885" lon="5.57965">
        <ele>1020.1</ele>
        <time>2019-06-23T08:50:44Z</time>
      </trkpt>
      <trkpt lat="45.09883" lon="5.57964">
        <ele>1019.62</ele>
        <time>2019-06-23T08:50:45Z</time>
      </trkpt>
      <trkpt lat="45.09882" lon="5.57964">
        <ele>1020.1</ele>
        <time>2019-06-23T08:50:46Z</time>
      </trkpt>
      <trkpt lat="45.09879" lon="5.57963">
        <ele>1020.1</ele>
        <time>2019-06-23T08:50:47Z</time>
      </trkpt>
      <trkpt lat="45.09877" lon="5.57964">
        <ele>1019.62</ele>
        <time>2019-06-23T08:50:48Z</time>
      </trkpt>
      <trkpt lat="45.09874" lon="5.57965">
        <ele>1019.62</ele>
        <time>2019-06-23T08:50:49Z</time>
      </trkpt>
      <trkpt lat="45.09871" lon="5.57966">
        <ele>1019.13</ele>
        <time>2019-06-23T08:50:50Z</time>
      </trkpt>
      <trkpt lat="45.09868" lon="5.57968">
        <ele>1019.13</ele>
        <time>2019-06-23T08:50:51Z</time>
      </trkpt>
      <trkpt lat="45.09864" lon="5.5797">
        <ele>1018.65</ele>
        <time>2019-06-23T08:50:52Z</time>
      </trkpt>
      <trkpt lat="45.09859" lon="5.57971">
        <ele>1018.65</ele>
        <time>2019-06-23T08:50:53Z</time>
      </trkpt>
      <trkpt lat="45.09855" lon="5.57972">
        <ele>1018.17</ele>
        <time>2019-06-23T08:50:54Z</time>
      </trkpt>
      <trkpt lat="45.0985" lon="5.57972">
        <ele>1018.17</ele>
        <time>2019-06-23T08:50:55Z</time>
      </trkpt>
      <trkpt lat="45.09844" lon="5.57971">
        <ele>1017.21</ele>
        <time>2019-06-23T08:50:56Z</time>
      </trkpt>
      <trkpt lat="45.09838" lon="5.5797">
        <ele>1017.21</ele>
        <time>2019-06-23T08:50:57Z</time>
      </trkpt>
      <trkpt lat="45.09833" lon="5.57969">
        <ele>1017.21</ele>
        <time>2019-06-23T08:50:58Z</time>
      </trkpt>
      <trkpt lat="45.09775" lon="5.57961">
        <ele>1017.21</ele>
        <time>2019-06-23T08:51:11Z</time>
      </trkpt>
      <trkpt lat="45.09726" lon="5.57977">
        <ele>1018.17</ele>
        <time>2019-06-23T08:51:26Z</time>
      </trkpt>
      <trkpt lat="45.09717" lon="5.57979">
        <ele>1016.73</ele>
        <time>2019-06-23T08:51:28Z</time>
      </trkpt>
      <trkpt lat="45.09623" lon="5.57999">
        <ele>1014.33</ele>
        <time>2019-06-23T08:51:45Z</time>
      </trkpt>
      <trkpt lat="45.09618" lon="5.57997">
        <ele>1014.33</ele>
        <time>2019-06-23T08:51:46Z</time>
      </trkpt>
      <trkpt lat="45.09613" lon="5.57995">
        <ele>1014.33</ele>
        <time>2019-06-23T08:51:47Z</time>
      </trkpt>
      <trkpt lat="45.09596" lon="5.57986">
        <ele>1015.77</ele>
        <time>2019-06-23T08:51:52Z</time>
      </trkpt>
      <trkpt lat="45.09545" lon="5.57955">
        <ele>1018.17</ele>
        <time>2019-06-23T08:52:12Z</time>
      </trkpt>
      <trkpt lat="45.09516" lon="5.57937">
        <ele>1021.06</ele>
        <time>2019-06-23T08:52:29Z</time>
      </trkpt>
      <trkpt lat="45.09487" lon="5.57921">
        <ele>1023.94</ele>
        <time>2019-06-23T08:52:47Z</time>
      </trkpt>
      <trkpt lat="45.0946" lon="5.57905">
        <ele>1025.38</ele>
        <time>2019-06-23T08:53:02Z</time>
      </trkpt>
      <trkpt lat="45.09426" lon="5.57888">
        <ele>1026.34</ele>
        <time>2019-06-23T08:53:18Z</time>
      </trkpt>
      <trkpt lat="45.09372" lon="5.57869">
        <ele>1026.34</ele>
        <time>2019-06-23T08:53:36Z</time>
      </trkpt>
      <trkpt lat="45.09322" lon="5.57889">
        <ele>1026.83</ele>
        <time>2019-06-23T08:53:52Z</time>
      </trkpt>
      <trkpt lat="45.09282" lon="5.57935">
        <ele>1028.75</ele>
        <time>2019-06-23T08:54:09Z</time>
      </trkpt>
      <trkpt lat="45.0924" lon="5.57962">
        <ele>1030.19</ele>
        <time>2019-06-23T08:54:24Z</time>
      </trkpt>
      <trkpt lat="45.09192" lon="5.57953">
        <ele>1031.15</ele>
        <time>2019-06-23T08:54:40Z</time>
      </trkpt>
      <trkpt lat="45.0915" lon="5.57949">
        <ele>1032.59</ele>
        <time>2019-06-23T08:54:55Z</time>
      </trkpt>
      <trkpt lat="45.09113" lon="5.57962">
        <ele>1033.07</ele>
        <time>2019-06-23T08:55:09Z</time>
      </trkpt>
      <trkpt lat="45.09065" lon="5.57988">
        <ele>1034.04</ele>
        <time>2019-06-23T08:55:25Z</time>
      </trkpt>
      <trkpt lat="45.09013" lon="5.58015">
        <ele>1034.52</ele>
        <time>2019-06-23T08:55:42Z</time>
      </trkpt>
      <trkpt lat="45.08967" lon="5.58012">
        <ele>1035.96</ele>
        <time>2019-06-23T08:55:57Z</time>
      </trkpt>
      <trkpt lat="45.08926" lon="5.57994">
        <ele>1038.84</ele>
        <time>2019-06-23T08:56:13Z</time>
      </trkpt>
      <trkpt lat="45.08872" lon="5.57989">
        <ele>1041.25</ele>
        <time>2019-06-23T08:56:33Z</time>
      </trkpt>
      <trkpt lat="45.08822" lon="5.57987">
        <ele>1042.69</ele>
        <time>2019-06-23T08:56:51Z</time>
      </trkpt>
      <trkpt lat="45.08761" lon="5.57983">
        <ele>1044.61</ele>
        <time>2019-06-23T08:57:12Z</time>
      </trkpt>
      <trkpt lat="45.08698" lon="5.5798">
        <ele>1045.57</ele>
        <time>2019-06-23T08:57:33Z</time>
      </trkpt>
      <trkpt lat="45.08649" lon="5.5798">
        <ele>1047.97</ele>
        <time>2019-06-23T08:57:50Z</time>
      </trkpt>
      <trkpt lat="45.08603" lon="5.57983">
        <ele>1049.9</ele>
        <time>2019-06-23T08:58:06Z</time>
      </trkpt>
      <trkpt lat="45.08544" lon="5.57987">
        <ele>1051.82</ele>
        <time>2019-06-23T08:58:26Z</time>
      </trkpt>
      <trkpt lat="45.08488" lon="5.57997">
        <ele>1053.26</ele>
        <time>2019-06-23T08:58:44Z</time>
      </trkpt>
      <trkpt lat="45.08451" lon="5.58018">
        <ele>1054.22</ele>
        <time>2019-06-23T08:58:58Z</time>
      </trkpt>
      <trkpt lat="45.08439" lon="5.58024">
        <ele>1055.18</ele>
        <time>2019-06-23T08:59:10Z</time>
      </trkpt>
      <trkpt lat="45.0844" lon="5.58025">
        <ele>1055.67</ele>
        <time>2019-06-23T08:59:31Z</time>
      </trkpt>
      <trkpt lat="45.08439" lon="5.58025">
        <ele>1055.67</ele>
        <time>2019-06-23T08:59:56Z</time>
      </trkpt>
      <trkpt lat="45.08437" lon="5.58025">
        <ele>1055.67</ele>
        <time>2019-06-23T09:00:15Z</time>
      </trkpt>
      <trkpt lat="45.08436" lon="5.58024">
        <ele>1056.15</ele>
        <time>2019-06-23T09:00:38Z</time>
      </trkpt>
      <trkpt lat="45.08437" lon="5.58026">
        <ele>1056.15</ele>
        <time>2019-06-23T09:00:56Z</time>
      </trkpt>
      <trkpt lat="45.08436" lon="5.58026">
        <ele>1056.15</ele>
        <time>2019-06-23T09:01:14Z</time>
      </trkpt>
      <trkpt lat="45.08435" lon="5.58027">
        <ele>1056.15</ele>
        <time>2019-06-23T09:01:26Z</time>
      </trkpt>
      <trkpt lat="45.08434" lon="5.58028">
        <ele>1056.15</ele>
        <time>2019-06-23T09:01:27Z</time>
      </trkpt>
      <trkpt lat="45.08433" lon="5.58028">
        <ele>1056.15</ele>
        <time>2019-06-23T09:01:28Z</time>
      </trkpt>
      <trkpt lat="45.08431" lon="5.58028">
        <ele>1056.15</ele>
        <time>2019-06-23T09:01:29Z</time>
      </trkpt>
      <trkpt lat="45.0843" lon="5.58028">
        <ele>1056.63</ele>
        <time>2019-06-23T09:01:30Z</time>
      </trkpt>
      <trkpt lat="45.08429" lon="5.58029">
        <ele>1056.63</ele>
        <time>2019-06-23T09:01:31Z</time>
      </trkpt>
      <trkpt lat="45.08428" lon="5.5803">
        <ele>1056.63</ele>
        <time>2019-06-23T09:01:32Z</time>
      </trkpt>
      <trkpt lat="45.08426" lon="5.5803">
        <ele>1056.63</ele>
        <time>2019-06-23T09:01:33Z</time>
      </trkpt>
      <trkpt lat="45.08425" lon="5.5803">
        <ele>1056.63</ele>
        <time>2019-06-23T09:01:34Z</time>
      </trkpt>
      <trkpt lat="45.08424" lon="5.58029">
        <ele>1056.63</ele>
        <time>2019-06-23T09:01:35Z</time>
      </trkpt>
      <trkpt lat="45.08422" lon="5.58029">
        <ele>1057.11</ele>
        <time>2019-06-23T09:01:36Z</time>
      </trkpt>
      <trkpt lat="45.0842" lon="5.58029">
        <ele>1057.11</ele>
        <time>2019-06-23T09:01:37Z</time>
      </trkpt>
      <trkpt lat="45.08418" lon="5.58029">
        <ele>1057.11</ele>
        <time>2019-06-23T09:01:38Z</time>
      </trkpt>
      <trkpt lat="45.08388" lon="5.58023">
        <ele>1058.55</ele>
        <time>2019-06-23T09:01:53Z</time>
      </trkpt>
      <trkpt lat="45.08377" lon="5.57984">
        <ele>1059.51</ele>
        <time>2019-06-23T09:02:06Z</time>
      </trkpt>
      <trkpt lat="45.08395" lon="5.57929">
        <ele>1060.95</ele>
        <time>2019-06-23T09:02:22Z</time>
      </trkpt>
      <trkpt lat="45.08416" lon="5.5786">
        <ele>1061.91</ele>
        <time>2019-06-23T09:02:41Z</time>
      </trkpt>
      <trkpt lat="45.08414" lon="5.57803">
        <ele>1062.87</ele>
        <time>2019-06-23T09:02:55Z</time>
      </trkpt>
      <trkpt lat="45.08394" lon="5.57733">
        <ele>1064.32</ele>
        <time>2019-06-23T09:03:13Z</time>
      </trkpt>
      <trkpt lat="45.08376" lon="5.57674">
        <ele>1065.76</ele>
        <time>2019-06-23T09:03:28Z</time>
      </trkpt>
      <trkpt lat="45.08353" lon="5.57632">
        <ele>1068.16</ele>
        <time>2019-06-23T09:03:45Z</time>
      </trkpt>
      <trkpt lat="45.08327" lon="5.57603">
        <ele>1071.05</ele>
        <time>2019-06-23T09:04:01Z</time>
      </trkpt>
      <trkpt lat="45.08306" lon="5.57566">
        <ele>1073.93</ele>
        <time>2019-06-23T09:04:19Z</time>
      </trkpt>
      <trkpt lat="45.08287" lon="5.57536">
        <ele>1077.29</ele>
        <time>2019-06-23T09:04:35Z</time>
      </trkpt>
      <trkpt lat="45.08258" lon="5.57531">
        <ele>1079.7</ele>
        <time>2019-06-23T09:04:52Z</time>
      </trkpt>
      <trkpt lat="45.08242" lon="5.57544">
        <ele>1080.66</ele>
        <time>2019-06-23T09:05:05Z</time>
      </trkpt>
      <trkpt lat="45.0824" lon="5.57544">
        <ele>1081.14</ele>
        <time>2019-06-23T09:05:06Z</time>
      </trkpt>
      <trkpt lat="45.08239" lon="5.57544">
        <ele>1081.14</ele>
        <time>2019-06-23T09:05:07Z</time>
      </trkpt>
      <trkpt lat="45.08238" lon="5.57545">
        <ele>1081.14</ele>
        <time>2019-06-23T09:05:08Z</time>
      </trkpt>
      <trkpt lat="45.08237" lon="5.57546">
        <ele>1081.14</ele>
        <time>2019-06-23T09:05:09Z</time>
      </trkpt>
      <trkpt lat="45.08236" lon="5.57547">
        <ele>1081.14</ele>
        <time>2019-06-23T09:05:10Z</time>
      </trkpt>
      <trkpt lat="45.08234" lon="5.57548">
        <ele>1081.14</ele>
        <time>2019-06-23T09:05:11Z</time>
      </trkpt>
      <trkpt lat="45.08223" lon="5.57559">
        <ele>1082.58</ele>
        <time>2019-06-23T09:05:20Z</time>
      </trkpt>
      <trkpt lat="45.08221" lon="5.5756">
        <ele>1082.58</ele>
        <time>2019-06-23T09:05:21Z</time>
      </trkpt>
      <trkpt lat="45.08219" lon="5.57561">
        <ele>1082.58</ele>
        <time>2019-06-23T09:05:22Z</time>
      </trkpt>
      <trkpt lat="45.08218" lon="5.57563">
        <ele>1082.58</ele>
        <time>2019-06-23T09:05:23Z</time>
      </trkpt>
      <trkpt lat="45.08217" lon="5.57564">
        <ele>1082.58</ele>
        <time>2019-06-23T09:05:24Z</time>
      </trkpt>
      <trkpt lat="45.08215" lon="5.57565">
        <ele>1082.58</ele>
        <time>2019-06-23T09:05:25Z</time>
      </trkpt>
      <trkpt lat="45.08214" lon="5.57567">
        <ele>1082.58</ele>
        <time>2019-06-23T09:05:26Z</time>
      </trkpt>
      <trkpt lat="45.08185" lon="5.57584">
        <ele>1084.5</ele>
        <time>2019-06-23T09:05:44Z</time>
      </trkpt>
      <trkpt lat="45.08154" lon="5.57596">
        <ele>1086.43</ele>
        <time>2019-06-23T09:06:02Z</time>
      </trkpt>
      <trkpt lat="45.08122" lon="5.5761">
        <ele>1088.83</ele>
        <time>2019-06-23T09:06:20Z</time>
      </trkpt>
      <trkpt lat="45.08089" lon="5.57617">
        <ele>1089.79</ele>
        <time>2019-06-23T09:06:36Z</time>
      </trkpt>
      <trkpt lat="45.08053" lon="5.57583">
        <ele>1090.75</ele>
        <time>2019-06-23T09:06:53Z</time>
      </trkpt>
      <trkpt lat="45.08015" lon="5.57533">
        <ele>1090.75</ele>
        <time>2019-06-23T09:07:10Z</time>
      </trkpt>
      <trkpt lat="45.07994" lon="5.57519">
        <ele>1090.75</ele>
        <time>2019-06-23T09:07:16Z</time>
      </trkpt>
      <trkpt lat="45.0799" lon="5.57515">
        <ele>1089.31</ele>
        <time>2019-06-23T09:07:17Z</time>
      </trkpt>
      <trkpt lat="45.07987" lon="5.57511">
        <ele>1089.31</ele>
        <time>2019-06-23T09:07:18Z</time>
      </trkpt>
      <trkpt lat="45.07961" lon="5.57468">
        <ele>1089.31</ele>
        <time>2019-06-23T09:07:30Z</time>
      </trkpt>
      <trkpt lat="45.07946" lon="5.57463">
        <ele>1089.31</ele>
        <time>2019-06-23T09:07:34Z</time>
      </trkpt>
      <trkpt lat="45.07903" lon="5.5749">
        <ele>1088.83</ele>
        <time>2019-06-23T09:07:47Z</time>
      </trkpt>
      <trkpt lat="45.07857" lon="5.57503">
        <ele>1090.27</ele>
        <time>2019-06-23T09:08:01Z</time>
      </trkpt>
      <trkpt lat="45.07819" lon="5.575">
        <ele>1092.2</ele>
        <time>2019-06-23T09:08:15Z</time>
      </trkpt>
      <trkpt lat="45.07789" lon="5.57471">
        <ele>1093.64</ele>
        <time>2019-06-23T09:08:28Z</time>
      </trkpt>
      <trkpt lat="45.07762" lon="5.57419">
        <ele>1096.04</ele>
        <time>2019-06-23T09:08:46Z</time>
      </trkpt>
      <trkpt lat="45.07743" lon="5.57385">
        <ele>1097.48</ele>
        <time>2019-06-23T09:09:00Z</time>
      </trkpt>
      <trkpt lat="45.07741" lon="5.57385">
        <ele>1097.48</ele>
        <time>2019-06-23T09:09:01Z</time>
      </trkpt>
      <trkpt lat="45.07738" lon="5.57386">
        <ele>1097.48</ele>
        <time>2019-06-23T09:09:02Z</time>
      </trkpt>
      <trkpt lat="45.07737" lon="5.57387">
        <ele>1097.48</ele>
        <time>2019-06-23T09:09:03Z</time>
      </trkpt>
      <trkpt lat="45.07735" lon="5.57389">
        <ele>1097.48</ele>
        <time>2019-06-23T09:09:04Z</time>
      </trkpt>
      <trkpt lat="45.07733" lon="5.57391">
        <ele>1097.48</ele>
        <time>2019-06-23T09:09:05Z</time>
      </trkpt>
      <trkpt lat="45.07732" lon="5.57393">
        <ele>1097.48</ele>
        <time>2019-06-23T09:09:06Z</time>
      </trkpt>
      <trkpt lat="45.07707" lon="5.57421">
        <ele>1098.92</ele>
        <time>2019-06-23T09:09:21Z</time>
      </trkpt>
      <trkpt lat="45.07688" lon="5.57454">
        <ele>1100.85</ele>
        <time>2019-06-23T09:09:37Z</time>
      </trkpt>
      <trkpt lat="45.07684" lon="5.57491">
        <ele>1103.25</ele>
        <time>2019-06-23T09:09:54Z</time>
      </trkpt>
      <trkpt lat="45.07683" lon="5.57493">
        <ele>1103.73</ele>
        <time>2019-06-23T09:09:55Z</time>
      </trkpt>
      <trkpt lat="45.07683" lon="5.57494">
        <ele>1103.73</ele>
        <time>2019-06-23T09:09:56Z</time>
      </trkpt>
      <trkpt lat="45.0768" lon="5.57526">
        <ele>1106.13</ele>
        <time>2019-06-23T09:10:12Z</time>
      </trkpt>
      <trkpt lat="45.07674" lon="5.5755">
        <ele>1108.54</ele>
        <time>2019-06-23T09:10:27Z</time>
      </trkpt>
      <trkpt lat="45.07675" lon="5.57552">
        <ele>1109.02</ele>
        <time>2019-06-23T09:10:43Z</time>
      </trkpt>
      <trkpt lat="45.07673" lon="5.57553">
        <ele>1109.5</ele>
        <time>2019-06-23T09:11:04Z</time>
      </trkpt>
      <trkpt lat="45.07669" lon="5.57553">
        <ele>1109.5</ele>
        <time>2019-06-23T09:11:08Z</time>
      </trkpt>
      <trkpt lat="45.07658" lon="5.57568">
        <ele>1112.86</ele>
        <time>2019-06-23T09:11:24Z</time>
      </trkpt>
      <trkpt lat="45.0765" lon="5.57584">
        <ele>1114.79</ele>
        <time>2019-06-23T09:11:38Z</time>
      </trkpt>
      <trkpt lat="45.07649" lon="5.57585">
        <ele>1114.79</ele>
        <time>2019-06-23T09:11:39Z</time>
      </trkpt>
      <trkpt lat="45.07645" lon="5.57594">
        <ele>1116.71</ele>
        <time>2019-06-23T09:11:47Z</time>
      </trkpt>
      <trkpt lat="45.07642" lon="5.57599">
        <ele>1117.19</ele>
        <time>2019-06-23T09:11:51Z</time>
      </trkpt>
      <trkpt lat="45.07638" lon="5.57625">
        <ele>1120.55</ele>
        <time>2019-06-23T09:12:07Z</time>
      </trkpt>
      <trkpt lat="45.07638" lon="5.5765">
        <ele>1123.44</ele>
        <time>2019-06-23T09:12:23Z</time>
      </trkpt>
      <trkpt lat="45.07636" lon="5.57668">
        <ele>1125.84</ele>
        <time>2019-06-23T09:12:36Z</time>
      </trkpt>
      <trkpt lat="45.07635" lon="5.57669">
        <ele>1126.32</ele>
        <time>2019-06-23T09:12:37Z</time>
      </trkpt>
      <trkpt lat="45.07634" lon="5.5767">
        <ele>1126.32</ele>
        <time>2019-06-23T09:12:38Z</time>
      </trkpt>
      <trkpt lat="45.07632" lon="5.57674">
        <ele>1127.28</ele>
        <time>2019-06-23T09:12:42Z</time>
      </trkpt>
      <trkpt lat="45.07625" lon="5.57678">
        <ele>1128.24</ele>
        <time>2019-06-23T09:12:49Z</time>
      </trkpt>
      <trkpt lat="45.07623" lon="5.57678">
        <ele>1128.24</ele>
        <time>2019-06-23T09:12:50Z</time>
      </trkpt>
      <trkpt lat="45.07611" lon="5.57678">
        <ele>1131.13</ele>
        <time>2019-06-23T09:13:03Z</time>
      </trkpt>
      <trkpt lat="45.07596" lon="5.57684">
        <ele>1134.01</ele>
        <time>2019-06-23T09:13:19Z</time>
      </trkpt>
      <trkpt lat="45.07595" lon="5.57691">
        <ele>1134.97</ele>
        <time>2019-06-23T09:13:24Z</time>
      </trkpt>
      <trkpt lat="45.07594" lon="5.57692">
        <ele>1134.97</ele>
        <time>2019-06-23T09:13:25Z</time>
      </trkpt>
      <trkpt lat="45.07594" lon="5.57693">
        <ele>1134.97</ele>
        <time>2019-06-23T09:13:26Z</time>
      </trkpt>
      <trkpt lat="45.07592" lon="5.577">
        <ele>1136.42</ele>
        <time>2019-06-23T09:13:31Z</time>
      </trkpt>
      <trkpt lat="45.07589" lon="5.57708">
        <ele>1137.38</ele>
        <time>2019-06-23T09:13:37Z</time>
      </trkpt>
      <trkpt lat="45.07587" lon="5.57708">
        <ele>1137.38</ele>
        <time>2019-06-23T09:13:39Z</time>
      </trkpt>
      <trkpt lat="45.07572" lon="5.57699">
        <ele>1139.3</ele>
        <time>2019-06-23T09:13:54Z</time>
      </trkpt>
      <trkpt lat="45.07571" lon="5.577">
        <ele>1139.3</ele>
        <time>2019-06-23T09:13:55Z</time>
      </trkpt>
      <trkpt lat="45.07564" lon="5.57708">
        <ele>1140.74</ele>
        <time>2019-06-23T09:14:03Z</time>
      </trkpt>
      <trkpt lat="45.07558" lon="5.57719">
        <ele>1142.66</ele>
        <time>2019-06-23T09:14:14Z</time>
      </trkpt>
      <trkpt lat="45.07557" lon="5.5772">
        <ele>1142.66</ele>
        <time>2019-06-23T09:14:15Z</time>
      </trkpt>
      <trkpt lat="45.07556" lon="5.5772">
        <ele>1143.14</ele>
        <time>2019-06-23T09:14:16Z</time>
      </trkpt>
      <trkpt lat="45.07543" lon="5.57731">
        <ele>1146.03</ele>
        <time>2019-06-23T09:14:31Z</time>
      </trkpt>
      <trkpt lat="45.07541" lon="5.57734">
        <ele>1146.99</ele>
        <time>2019-06-23T09:14:35Z</time>
      </trkpt>
      <trkpt lat="45.0753" lon="5.57742">
        <ele>1149.39</ele>
        <time>2019-06-23T09:14:48Z</time>
      </trkpt>
      <trkpt lat="45.07519" lon="5.57755">
        <ele>1152.28</ele>
        <time>2019-06-23T09:15:02Z</time>
      </trkpt>
      <trkpt lat="45.07506" lon="5.57769">
        <ele>1154.68</ele>
        <time>2019-06-23T09:15:16Z</time>
      </trkpt>
      <trkpt lat="45.07491" lon="5.57787">
        <ele>1157.08</ele>
        <time>2019-06-23T09:15:33Z</time>
      </trkpt>
      <trkpt lat="45.07476" lon="5.57801">
        <ele>1158.53</ele>
        <time>2019-06-23T09:15:47Z</time>
      </trkpt>
      <trkpt lat="45.07457" lon="5.57816">
        <ele>1160.93</ele>
        <time>2019-06-23T09:16:05Z</time>
      </trkpt>
      <trkpt lat="45.07435" lon="5.57825">
        <ele>1161.89</ele>
        <time>2019-06-23T09:16:22Z</time>
      </trkpt>
      <trkpt lat="45.07408" lon="5.57819">
        <ele>1161.89</ele>
        <time>2019-06-23T09:16:36Z</time>
      </trkpt>
      <trkpt lat="45.07409" lon="5.5782">
        <ele>1161.89</ele>
        <time>2019-06-23T09:16:59Z</time>
      </trkpt>
      <trkpt lat="45.0741" lon="5.57816">
        <ele>1160.93</ele>
        <time>2019-06-23T09:17:29Z</time>
      </trkpt>
      <trkpt lat="45.07408" lon="5.57817">
        <ele>1160.93</ele>
        <time>2019-06-23T09:18:16Z</time>
      </trkpt>
      <trkpt lat="45.07406" lon="5.57816">
        <ele>1161.41</ele>
        <time>2019-06-23T09:19:03Z</time>
      </trkpt>
      <trkpt lat="45.0741" lon="5.57817">
        <ele>1160.93</ele>
        <time>2019-06-23T09:19:42Z</time>
      </trkpt>
      <trkpt lat="45.07409" lon="5.57818">
        <ele>1161.41</ele>
        <time>2019-06-23T09:20:21Z</time>
      </trkpt>
      <trkpt lat="45.07408" lon="5.57819">
        <ele>1161.41</ele>
        <time>2019-06-23T09:21:00Z</time>
      </trkpt>
      <trkpt lat="45.07411" lon="5.57819">
        <ele>1161.41</ele>
        <time>2019-06-23T09:21:43Z</time>
      </trkpt>
      <trkpt lat="45.07408" lon="5.57821">
        <ele>1161.89</ele>
        <time>2019-06-23T09:22:14Z</time>
      </trkpt>
      <trkpt lat="45.0741" lon="5.57817">
        <ele>1161.89</ele>
        <time>2019-06-23T09:22:50Z</time>
      </trkpt>
      <trkpt lat="45.07399" lon="5.57813">
        <ele>1161.41</ele>
        <time>2019-06-23T09:23:18Z</time>
      </trkpt>
      <trkpt lat="45.07363" lon="5.5781">
        <ele>1159.49</ele>
        <time>2019-06-23T09:23:32Z</time>
      </trkpt>
      <trkpt lat="45.07344" lon="5.57852">
        <ele>1158.53</ele>
        <time>2019-06-23T09:23:43Z</time>
      </trkpt>
      <trkpt lat="45.07335" lon="5.57874">
        <ele>1160.93</ele>
        <time>2019-06-23T09:23:56Z</time>
      </trkpt>
      <trkpt lat="45.07328" lon="5.57904">
        <ele>1162.85</ele>
        <time>2019-06-23T09:24:12Z</time>
      </trkpt>
      <trkpt lat="45.07327" lon="5.57911">
        <ele>1163.33</ele>
        <time>2019-06-23T09:24:16Z</time>
      </trkpt>
      <trkpt lat="45.07317" lon="5.57924">
        <ele>1166.22</ele>
        <time>2019-06-23T09:24:30Z</time>
      </trkpt>
      <trkpt lat="45.07316" lon="5.57925">
        <ele>1166.22</ele>
        <time>2019-06-23T09:24:31Z</time>
      </trkpt>
      <trkpt lat="45.07314" lon="5.57925">
        <ele>1166.22</ele>
        <time>2019-06-23T09:24:32Z</time>
      </trkpt>
      <trkpt lat="45.07306" lon="5.57925">
        <ele>1167.18</ele>
        <time>2019-06-23T09:24:38Z</time>
      </trkpt>
      <trkpt lat="45.07289" lon="5.57912">
        <ele>1169.1</ele>
        <time>2019-06-23T09:24:54Z</time>
      </trkpt>
      <trkpt lat="45.07271" lon="5.57901">
        <ele>1170.06</ele>
        <time>2019-06-23T09:25:06Z</time>
      </trkpt>
      <trkpt lat="45.07243" lon="5.57894">
        <ele>1171.02</ele>
        <time>2019-06-23T09:25:22Z</time>
      </trkpt>
      <trkpt lat="45.07205" lon="5.57882">
        <ele>1169.1</ele>
        <time>2019-06-23T09:25:37Z</time>
      </trkpt>
      <trkpt lat="45.072" lon="5.57882">
        <ele>1169.1</ele>
        <time>2019-06-23T09:25:38Z</time>
      </trkpt>
      <trkpt lat="45.07158" lon="5.57887">
        <ele>1168.14</ele>
        <time>2019-06-23T09:25:48Z</time>
      </trkpt>
      <trkpt lat="45.07156" lon="5.57884">
        <ele>1168.14</ele>
        <time>2019-06-23T09:25:49Z</time>
      </trkpt>
      <trkpt lat="45.07153" lon="5.57881">
        <ele>1167.66</ele>
        <time>2019-06-23T09:25:50Z</time>
      </trkpt>
      <trkpt lat="45.07151" lon="5.57877">
        <ele>1167.18</ele>
        <time>2019-06-23T09:25:51Z</time>
      </trkpt>
      <trkpt lat="45.0715" lon="5.57873">
        <ele>1167.18</ele>
        <time>2019-06-23T09:25:52Z</time>
      </trkpt>
      <trkpt lat="45.07148" lon="5.57869">
        <ele>1166.7</ele>
        <time>2019-06-23T09:25:53Z</time>
      </trkpt>
      <trkpt lat="45.07137" lon="5.57841">
        <ele>1164.29</ele>
        <time>2019-06-23T09:25:59Z</time>
      </trkpt>
      <trkpt lat="45.07124" lon="5.57816">
        <ele>1160.93</ele>
        <time>2019-06-23T09:26:06Z</time>
      </trkpt>
      <trkpt lat="45.07097" lon="5.57793">
        <ele>1158.05</ele>
        <time>2019-06-23T09:26:15Z</time>
      </trkpt>
      <trkpt lat="45.07073" lon="5.57766">
        <ele>1154.68</ele>
        <time>2019-06-23T09:26:27Z</time>
      </trkpt>
      <trkpt lat="45.07071" lon="5.57762">
        <ele>1154.2</ele>
        <time>2019-06-23T09:26:28Z</time>
      </trkpt>
      <trkpt lat="45.0707" lon="5.57759">
        <ele>1154.2</ele>
        <time>2019-06-23T09:26:29Z</time>
      </trkpt>
      <trkpt lat="45.07064" lon="5.57754">
        <ele>1153.72</ele>
        <time>2019-06-23T09:26:40Z</time>
      </trkpt>
      <trkpt lat="45.07059" lon="5.57738">
        <ele>1153.24</ele>
        <time>2019-06-23T09:26:55Z</time>
      </trkpt>
      <trkpt lat="45.07053" lon="5.57729">
        <ele>1152.76</ele>
        <time>2019-06-23T09:27:07Z</time>
      </trkpt>
      <trkpt lat="45.07052" lon="5.57726">
        <ele>1152.28</ele>
        <time>2019-06-23T09:27:08Z</time>
      </trkpt>
      <trkpt lat="45.07052" lon="5.57724">
        <ele>1152.28</ele>
        <time>2019-06-23T09:27:09Z</time>
      </trkpt>
      <trkpt lat="45.07033" lon="5.57689">
        <ele>1148.91</ele>
        <time>2019-06-23T09:27:18Z</time>
      </trkpt>
      <trkpt lat="45.0703" lon="5.57679">
        <ele>1148.43</ele>
        <time>2019-06-23T09:27:20Z</time>
      </trkpt>
      <trkpt lat="45.07028" lon="5.57673">
        <ele>1148.43</ele>
        <time>2019-06-23T09:27:21Z</time>
      </trkpt>
      <trkpt lat="45.07016" lon="5.57637">
        <ele>1145.07</ele>
        <time>2019-06-23T09:27:28Z</time>
      </trkpt>
      <trkpt lat="45.06998" lon="5.57609">
        <ele>1142.18</ele>
        <time>2019-06-23T09:27:34Z</time>
      </trkpt>
      <trkpt lat="45.06989" lon="5.57593">
        <ele>1140.74</ele>
        <time>2019-06-23T09:27:37Z</time>
      </trkpt>
      <trkpt lat="45.06989" lon="5.57587">
        <ele>1139.78</ele>
        <time>2019-06-23T09:27:38Z</time>
      </trkpt>
      <trkpt lat="45.06989" lon="5.57582">
        <ele>1139.78</ele>
        <time>2019-06-23T09:27:39Z</time>
      </trkpt>
      <trkpt lat="45.0699" lon="5.57576">
        <ele>1139.3</ele>
        <time>2019-06-23T09:27:40Z</time>
      </trkpt>
      <trkpt lat="45.06991" lon="5.5757">
        <ele>1138.82</ele>
        <time>2019-06-23T09:27:41Z</time>
      </trkpt>
      <trkpt lat="45.06993" lon="5.57563">
        <ele>1138.34</ele>
        <time>2019-06-23T09:27:42Z</time>
      </trkpt>
      <trkpt lat="45.06995" lon="5.57557">
        <ele>1137.86</ele>
        <time>2019-06-23T09:27:43Z</time>
      </trkpt>
      <trkpt lat="45.06999" lon="5.57537">
        <ele>1135.94</ele>
        <time>2019-06-23T09:27:46Z</time>
      </trkpt>
      <trkpt lat="45.06999" lon="5.5753">
        <ele>1135.45</ele>
        <time>2019-06-23T09:27:47Z</time>
      </trkpt>
      <trkpt lat="45.06999" lon="5.57523">
        <ele>1135.45</ele>
        <time>2019-06-23T09:27:48Z</time>
      </trkpt>
      <trkpt lat="45.06998" lon="5.57516">
        <ele>1134.49</ele>
        <time>2019-06-23T09:27:49Z</time>
      </trkpt>
      <trkpt lat="45.06997" lon="5.57509">
        <ele>1134.01</ele>
        <time>2019-06-23T09:27:50Z</time>
      </trkpt>
      <trkpt lat="45.06989" lon="5.57474">
        <ele>1131.13</ele>
        <time>2019-06-23T09:27:55Z</time>
      </trkpt>
      <trkpt lat="45.06984" lon="5.57462">
        <ele>1129.69</ele>
        <time>2019-06-23T09:27:57Z</time>
      </trkpt>
      <trkpt lat="45.06981" lon="5.57456">
        <ele>1129.21</ele>
        <time>2019-06-23T09:27:58Z</time>
      </trkpt>
      <trkpt lat="45.06977" lon="5.5745">
        <ele>1128.24</ele>
        <time>2019-06-23T09:27:59Z</time>
      </trkpt>
      <trkpt lat="45.06962" lon="5.57429">
        <ele>1126.32</ele>
        <time>2019-06-23T09:28:03Z</time>
      </trkpt>
      <trkpt lat="45.06957" lon="5.57419">
        <ele>1125.36</ele>
        <time>2019-06-23T09:28:05Z</time>
      </trkpt>
      <trkpt lat="45.06956" lon="5.57413">
        <ele>1124.88</ele>
        <time>2019-06-23T09:28:06Z</time>
      </trkpt>
      <trkpt lat="45.06956" lon="5.57407">
        <ele>1124.88</ele>
        <time>2019-06-23T09:28:07Z</time>
      </trkpt>
      <trkpt lat="45.06958" lon="5.57402">
        <ele>1123.92</ele>
        <time>2019-06-23T09:28:08Z</time>
      </trkpt>
      <trkpt lat="45.06961" lon="5.57398">
        <ele>1123.92</ele>
        <time>2019-06-23T09:28:09Z</time>
      </trkpt>
      <trkpt lat="45.06964" lon="5.57395">
        <ele>1123.44</ele>
        <time>2019-06-23T09:28:10Z</time>
      </trkpt>
      <trkpt lat="45.06968" lon="5.57394">
        <ele>1123.44</ele>
        <time>2019-06-23T09:28:11Z</time>
      </trkpt>
      <trkpt lat="45.06973" lon="5.57395">
        <ele>1122.48</ele>
        <time>2019-06-23T09:28:12Z</time>
      </trkpt>
      <trkpt lat="45.06978" lon="5.57398">
        <ele>1122.48</ele>
        <time>2019-06-23T09:28:13Z</time>
      </trkpt>
      <trkpt lat="45.06982" lon="5.574">
        <ele>1122</ele>
        <time>2019-06-23T09:28:14Z</time>
      </trkpt>
      <trkpt lat="45.06986" lon="5.57403">
        <ele>1122</ele>
        <time>2019-06-23T09:28:15Z</time>
      </trkpt>
      <trkpt lat="45.0699" lon="5.57406">
        <ele>1121.03</ele>
        <time>2019-06-23T09:28:16Z</time>
      </trkpt>
      <trkpt lat="45.07015" lon="5.57429">
        <ele>1118.15</ele>
        <time>2019-06-23T09:28:22Z</time>
      </trkpt>
      <trkpt lat="45.07032" lon="5.57441">
        <ele>1116.71</ele>
        <time>2019-06-23T09:28:26Z</time>
      </trkpt>
      <trkpt lat="45.07036" lon="5.57442">
        <ele>1115.75</ele>
        <time>2019-06-23T09:28:27Z</time>
      </trkpt>
      <trkpt lat="45.0704" lon="5.57441">
        <ele>1116.23</ele>
        <time>2019-06-23T09:28:28Z</time>
      </trkpt>
      <trkpt lat="45.07043" lon="5.57439">
        <ele>1115.75</ele>
        <time>2019-06-23T09:28:29Z</time>
      </trkpt>
      <trkpt lat="45.07046" lon="5.57435">
        <ele>1115.27</ele>
        <time>2019-06-23T09:28:30Z</time>
      </trkpt>
      <trkpt lat="45.07048" lon="5.57431">
        <ele>1115.27</ele>
        <time>2019-06-23T09:28:31Z</time>
      </trkpt>
      <trkpt lat="45.07049" lon="5.57426">
        <ele>1115.27</ele>
        <time>2019-06-23T09:28:32Z</time>
      </trkpt>
      <trkpt lat="45.07049" lon="5.57422">
        <ele>1114.31</ele>
        <time>2019-06-23T09:28:33Z</time>
      </trkpt>
      <trkpt lat="45.07049" lon="5.57418">
        <ele>1114.31</ele>
        <time>2019-06-23T09:28:34Z</time>
      </trkpt>
      <trkpt lat="45.07048" lon="5.57415">
        <ele>1113.82</ele>
        <time>2019-06-23T09:28:35Z</time>
      </trkpt>
      <trkpt lat="45.07047" lon="5.57412">
        <ele>1113.82</ele>
        <time>2019-06-23T09:28:36Z</time>
      </trkpt>
      <trkpt lat="45.07045" lon="5.57408">
        <ele>1113.34</ele>
        <time>2019-06-23T09:28:37Z</time>
      </trkpt>
      <trkpt lat="45.07043" lon="5.57404">
        <ele>1112.86</ele>
        <time>2019-06-23T09:28:38Z</time>
      </trkpt>
      <trkpt lat="45.07042" lon="5.574">
        <ele>1112.86</ele>
        <time>2019-06-23T09:28:39Z</time>
      </trkpt>
      <trkpt lat="45.07041" lon="5.57396">
        <ele>1112.38</ele>
        <time>2019-06-23T09:28:40Z</time>
      </trkpt>
      <trkpt lat="45.07039" lon="5.57393">
        <ele>1112.38</ele>
        <time>2019-06-23T09:28:41Z</time>
      </trkpt>
      <trkpt lat="45.07038" lon="5.57389">
        <ele>1111.42</ele>
        <time>2019-06-23T09:28:42Z</time>
      </trkpt>
      <trkpt lat="45.07024" lon="5.57348">
        <ele>1108.54</ele>
        <time>2019-06-23T09:28:51Z</time>
      </trkpt>
      <trkpt lat="45.07022" lon="5.57343">
        <ele>1107.58</ele>
        <time>2019-06-23T09:28:52Z</time>
      </trkpt>
      <trkpt lat="45.07017" lon="5.57332">
        <ele>1106.61</ele>
        <time>2019-06-23T09:28:54Z</time>
      </trkpt>
      <trkpt lat="45.06998" lon="5.573">
        <ele>1103.25</ele>
        <time>2019-06-23T09:29:01Z</time>
      </trkpt>
      <trkpt lat="45.06974" lon="5.57265">
        <ele>1099.89</ele>
        <time>2019-06-23T09:29:08Z</time>
      </trkpt>
      <trkpt lat="45.06961" lon="5.57244">
        <ele>1097.48</ele>
        <time>2019-06-23T09:29:12Z</time>
      </trkpt>
      <trkpt lat="45.06958" lon="5.57238">
        <ele>1097</ele>
        <time>2019-06-23T09:29:13Z</time>
      </trkpt>
      <trkpt lat="45.06954" lon="5.57224">
        <ele>1096.52</ele>
        <time>2019-06-23T09:29:15Z</time>
      </trkpt>
      <trkpt lat="45.06954" lon="5.57216">
        <ele>1095.56</ele>
        <time>2019-06-23T09:29:16Z</time>
      </trkpt>
      <trkpt lat="45.06955" lon="5.5721">
        <ele>1094.6</ele>
        <time>2019-06-23T09:29:17Z</time>
      </trkpt>
      <trkpt lat="45.06957" lon="5.57203">
        <ele>1094.12</ele>
        <time>2019-06-23T09:29:18Z</time>
      </trkpt>
      <trkpt lat="45.06959" lon="5.57197">
        <ele>1094.12</ele>
        <time>2019-06-23T09:29:19Z</time>
      </trkpt>
      <trkpt lat="45.06964" lon="5.57179">
        <ele>1092.2</ele>
        <time>2019-06-23T09:29:22Z</time>
      </trkpt>
      <trkpt lat="45.06964" lon="5.57156">
        <ele>1090.75</ele>
        <time>2019-06-23T09:29:26Z</time>
      </trkpt>
      <trkpt lat="45.06954" lon="5.57139">
        <ele>1088.83</ele>
        <time>2019-06-23T09:29:30Z</time>
      </trkpt>
      <trkpt lat="45.0695" lon="5.57135">
        <ele>1087.87</ele>
        <time>2019-06-23T09:29:31Z</time>
      </trkpt>
      <trkpt lat="45.06947" lon="5.5713">
        <ele>1087.39</ele>
        <time>2019-06-23T09:29:32Z</time>
      </trkpt>
      <trkpt lat="45.06935" lon="5.57113">
        <ele>1085.95</ele>
        <time>2019-06-23T09:29:36Z</time>
      </trkpt>
      <trkpt lat="45.06932" lon="5.57109">
        <ele>1084.99</ele>
        <time>2019-06-23T09:29:37Z</time>
      </trkpt>
      <trkpt lat="45.06929" lon="5.57104">
        <ele>1084.99</ele>
        <time>2019-06-23T09:29:38Z</time>
      </trkpt>
      <trkpt lat="45.06927" lon="5.57101">
        <ele>1084.5</ele>
        <time>2019-06-23T09:29:39Z</time>
      </trkpt>
      <trkpt lat="45.06926" lon="5.57098">
        <ele>1084.02</ele>
        <time>2019-06-23T09:29:40Z</time>
      </trkpt>
      <trkpt lat="45.0692" lon="5.57086">
        <ele>1083.06</ele>
        <time>2019-06-23T09:29:45Z</time>
      </trkpt>
      <trkpt lat="45.06921" lon="5.57083">
        <ele>1082.58</ele>
        <time>2019-06-23T09:29:46Z</time>
      </trkpt>
      <trkpt lat="45.06924" lon="5.57086">
        <ele>1082.1</ele>
        <time>2019-06-23T09:29:54Z</time>
      </trkpt>
      <trkpt lat="45.06925" lon="5.57095">
        <ele>1083.06</ele>
        <time>2019-06-23T09:30:00Z</time>
      </trkpt>
      <trkpt lat="45.06929" lon="5.57108">
        <ele>1083.54</ele>
        <time>2019-06-23T09:30:07Z</time>
      </trkpt>
      <trkpt lat="45.06934" lon="5.57117">
        <ele>1083.54</ele>
        <time>2019-06-23T09:30:12Z</time>
      </trkpt>
      <trkpt lat="45.06941" lon="5.57123">
        <ele>1084.02</ele>
        <time>2019-06-23T09:30:18Z</time>
      </trkpt>
      <trkpt lat="45.06955" lon="5.57138">
        <ele>1084.5</ele>
        <time>2019-06-23T09:30:28Z</time>
      </trkpt>
      <trkpt lat="45.06962" lon="5.57159">
        <ele>1085.47</ele>
        <time>2019-06-23T09:30:36Z</time>
      </trkpt>
      <trkpt lat="45.06959" lon="5.57173">
        <ele>1085.95</ele>
        <time>2019-06-23T09:30:42Z</time>
      </trkpt>
      <trkpt lat="45.06962" lon="5.57187">
        <ele>1086.43</ele>
        <time>2019-06-23T09:30:47Z</time>
      </trkpt>
      <trkpt lat="45.06961" lon="5.5719">
        <ele>1086.43</ele>
        <time>2019-06-23T09:30:48Z</time>
      </trkpt>
      <trkpt lat="45.06962" lon="5.57193">
        <ele>1086.43</ele>
        <time>2019-06-23T09:30:49Z</time>
      </trkpt>
      <trkpt lat="45.06963" lon="5.57196">
        <ele>1086.43</ele>
        <time>2019-06-23T09:30:50Z</time>
      </trkpt>
      <trkpt lat="45.06963" lon="5.57204">
        <ele>1086.43</ele>
        <time>2019-06-23T09:30:53Z</time>
      </trkpt>
      <trkpt lat="45.06961" lon="5.57207">
        <ele>1086.43</ele>
        <time>2019-06-23T09:30:54Z</time>
      </trkpt>
      <trkpt lat="45.0696" lon="5.57209">
        <ele>1086.43</ele>
        <time>2019-06-23T09:30:55Z</time>
      </trkpt>
      <trkpt lat="45.0696" lon="5.57213">
        <ele>1086.91</ele>
        <time>2019-06-23T09:30:57Z</time>
      </trkpt>
      <trkpt lat="45.06962" lon="5.57216">
        <ele>1086.91</ele>
        <time>2019-06-23T09:30:58Z</time>
      </trkpt>
      <trkpt lat="45.06963" lon="5.57218">
        <ele>1086.91</ele>
        <time>2019-06-23T09:30:59Z</time>
      </trkpt>
      <trkpt lat="45.06963" lon="5.57221">
        <ele>1086.91</ele>
        <time>2019-06-23T09:31:00Z</time>
      </trkpt>
      <trkpt lat="45.06964" lon="5.57222">
        <ele>1086.91</ele>
        <time>2019-06-23T09:31:01Z</time>
      </trkpt>
      <trkpt lat="45.06966" lon="5.57224">
        <ele>1087.39</ele>
        <time>2019-06-23T09:31:02Z</time>
      </trkpt>
      <trkpt lat="45.06967" lon="5.57226">
        <ele>1087.39</ele>
        <time>2019-06-23T09:31:03Z</time>
      </trkpt>
      <trkpt lat="45.06984" lon="5.57247">
        <ele>1087.39</ele>
        <time>2019-06-23T09:31:14Z</time>
      </trkpt>
      <trkpt lat="45.07002" lon="5.5726">
        <ele>1087.87</ele>
        <time>2019-06-23T09:31:23Z</time>
      </trkpt>
      <trkpt lat="45.07005" lon="5.57261">
        <ele>1087.87</ele>
        <time>2019-06-23T09:31:24Z</time>
      </trkpt>
      <trkpt lat="45.07055" lon="5.57256">
        <ele>1088.83</ele>
        <time>2019-06-23T09:31:36Z</time>
      </trkpt>
      <trkpt lat="45.07086" lon="5.57272">
        <ele>1088.83</ele>
        <time>2019-06-23T09:31:46Z</time>
      </trkpt>
      <trkpt lat="45.07096" lon="5.57296">
        <ele>1088.83</ele>
        <time>2019-06-23T09:31:58Z</time>
      </trkpt>
      <trkpt lat="45.07099" lon="5.57298">
        <ele>1088.83</ele>
        <time>2019-06-23T09:32:16Z</time>
      </trkpt>
      <trkpt lat="45.07099" lon="5.57299">
        <ele>1088.83</ele>
        <time>2019-06-23T09:32:25Z</time>
      </trkpt>
      <trkpt lat="45.07099" lon="5.57301">
        <ele>1088.83</ele>
        <time>2019-06-23T09:32:26Z</time>
      </trkpt>
      <trkpt lat="45.071" lon="5.57302">
        <ele>1088.83</ele>
        <time>2019-06-23T09:32:27Z</time>
      </trkpt>
      <trkpt lat="45.07101" lon="5.57303">
        <ele>1088.83</ele>
        <time>2019-06-23T09:32:28Z</time>
      </trkpt>
      <trkpt lat="45.07103" lon="5.57303">
        <ele>1088.83</ele>
        <time>2019-06-23T09:32:29Z</time>
      </trkpt>
      <trkpt lat="45.07103" lon="5.57302">
        <ele>1088.83</ele>
        <time>2019-06-23T09:32:30Z</time>
      </trkpt>
      <trkpt lat="45.07104" lon="5.573">
        <ele>1088.83</ele>
        <time>2019-06-23T09:32:31Z</time>
      </trkpt>
      <trkpt lat="45.07105" lon="5.57299">
        <ele>1088.83</ele>
        <time>2019-06-23T09:32:32Z</time>
      </trkpt>
      <trkpt lat="45.07107" lon="5.57299">
        <ele>1088.83</ele>
        <time>2019-06-23T09:32:33Z</time>
      </trkpt>
      <trkpt lat="45.07108" lon="5.573">
        <ele>1088.83</ele>
        <time>2019-06-23T09:32:34Z</time>
      </trkpt>
      <trkpt lat="45.07109" lon="5.57303">
        <ele>1087.39</ele>
        <time>2019-06-23T09:32:35Z</time>
      </trkpt>
      <trkpt lat="45.0711" lon="5.57305">
        <ele>1087.39</ele>
        <time>2019-06-23T09:32:36Z</time>
      </trkpt>
      <trkpt lat="45.07112" lon="5.57308">
        <ele>1086.91</ele>
        <time>2019-06-23T09:32:37Z</time>
      </trkpt>
      <trkpt lat="45.07114" lon="5.57311">
        <ele>1086.43</ele>
        <time>2019-06-23T09:32:38Z</time>
      </trkpt>
      <trkpt lat="45.07133" lon="5.57338">
        <ele>1083.06</ele>
        <time>2019-06-23T09:32:46Z</time>
      </trkpt>
      <trkpt lat="45.07147" lon="5.57354">
        <ele>1079.7</ele>
        <time>2019-06-23T09:32:54Z</time>
      </trkpt>
      <trkpt lat="45.07149" lon="5.57353">
        <ele>1080.18</ele>
        <time>2019-06-23T09:33:09Z</time>
      </trkpt>
      <trkpt lat="45.07149" lon="5.57352">
        <ele>1080.18</ele>
        <time>2019-06-23T09:33:22Z</time>
      </trkpt>
      <trkpt lat="45.07146" lon="5.57349">
        <ele>1080.18</ele>
        <time>2019-06-23T09:33:36Z</time>
      </trkpt>
      <trkpt lat="45.07145" lon="5.57348">
        <ele>1081.62</ele>
        <time>2019-06-23T09:33:37Z</time>
      </trkpt>
      <trkpt lat="45.07133" lon="5.57333">
        <ele>1083.54</ele>
        <time>2019-06-23T09:33:50Z</time>
      </trkpt>
      <trkpt lat="45.07133" lon="5.57332">
        <ele>1083.54</ele>
        <time>2019-06-23T09:33:51Z</time>
      </trkpt>
      <trkpt lat="45.07131" lon="5.5733">
        <ele>1084.02</ele>
        <time>2019-06-23T09:33:53Z</time>
      </trkpt>
      <trkpt lat="45.07115" lon="5.57305">
        <ele>1087.39</ele>
        <time>2019-06-23T09:34:12Z</time>
      </trkpt>
      <trkpt lat="45.0711" lon="5.573">
        <ele>1087.87</ele>
        <time>2019-06-23T09:34:17Z</time>
      </trkpt>
      <trkpt lat="45.07104" lon="5.57315">
        <ele>1087.87</ele>
        <time>2019-06-23T09:34:27Z</time>
      </trkpt>
      <trkpt lat="45.07105" lon="5.57319">
        <ele>1087.87</ele>
        <time>2019-06-23T09:34:28Z</time>
      </trkpt>
      <trkpt lat="45.07133" lon="5.57374">
        <ele>1087.87</ele>
        <time>2019-06-23T09:34:45Z</time>
      </trkpt>
      <trkpt lat="45.07145" lon="5.57417">
        <ele>1086.91</ele>
        <time>2019-06-23T09:34:56Z</time>
      </trkpt>
      <trkpt lat="45.07149" lon="5.57453">
        <ele>1086.43</ele>
        <time>2019-06-23T09:35:05Z</time>
      </trkpt>
      <trkpt lat="45.07151" lon="5.5746">
        <ele>1086.43</ele>
        <time>2019-06-23T09:35:08Z</time>
      </trkpt>
      <trkpt lat="45.07153" lon="5.57462">
        <ele>1086.43</ele>
        <time>2019-06-23T09:35:09Z</time>
      </trkpt>
      <trkpt lat="45.07155" lon="5.57464">
        <ele>1086.43</ele>
        <time>2019-06-23T09:35:10Z</time>
      </trkpt>
      <trkpt lat="45.07158" lon="5.57464">
        <ele>1086.43</ele>
        <time>2019-06-23T09:35:11Z</time>
      </trkpt>
      <trkpt lat="45.0716" lon="5.57465">
        <ele>1086.43</ele>
        <time>2019-06-23T09:35:12Z</time>
      </trkpt>
      <trkpt lat="45.07163" lon="5.57464">
        <ele>1086.43</ele>
        <time>2019-06-23T09:35:13Z</time>
      </trkpt>
      <trkpt lat="45.07166" lon="5.57464">
        <ele>1086.43</ele>
        <time>2019-06-23T09:35:14Z</time>
      </trkpt>
      <trkpt lat="45.07168" lon="5.57463">
        <ele>1086.43</ele>
        <time>2019-06-23T09:35:15Z</time>
      </trkpt>
      <trkpt lat="45.07216" lon="5.57438">
        <ele>1086.43</ele>
        <time>2019-06-23T09:35:29Z</time>
      </trkpt>
      <trkpt lat="45.07258" lon="5.57432">
        <ele>1087.87</ele>
        <time>2019-06-23T09:35:41Z</time>
      </trkpt>
      <trkpt lat="45.07284" lon="5.57384">
        <ele>1089.31</ele>
        <time>2019-06-23T09:35:54Z</time>
      </trkpt>
      <trkpt lat="45.07305" lon="5.57312">
        <ele>1090.75</ele>
        <time>2019-06-23T09:36:10Z</time>
      </trkpt>
      <trkpt lat="45.07331" lon="5.5725">
        <ele>1091.71</ele>
        <time>2019-06-23T09:36:25Z</time>
      </trkpt>
      <trkpt lat="45.07373" lon="5.57231">
        <ele>1093.16</ele>
        <time>2019-06-23T09:36:39Z</time>
      </trkpt>
      <trkpt lat="45.07423" lon="5.5723">
        <ele>1094.12</ele>
        <time>2019-06-23T09:36:54Z</time>
      </trkpt>
      <trkpt lat="45.07461" lon="5.57249">
        <ele>1095.08</ele>
        <time>2019-06-23T09:37:07Z</time>
      </trkpt>
      <trkpt lat="45.07504" lon="5.57257">
        <ele>1096.52</ele>
        <time>2019-06-23T09:37:20Z</time>
      </trkpt>
      <trkpt lat="45.07553" lon="5.57255">
        <ele>1097</ele>
        <time>2019-06-23T09:37:35Z</time>
      </trkpt>
      <trkpt lat="45.07602" lon="5.57268">
        <ele>1098.44</ele>
        <time>2019-06-23T09:37:50Z</time>
      </trkpt>
      <trkpt lat="45.07653" lon="5.573">
        <ele>1099.89</ele>
        <time>2019-06-23T09:38:06Z</time>
      </trkpt>
      <trkpt lat="45.07704" lon="5.5733">
        <ele>1100.37</ele>
        <time>2019-06-23T09:38:22Z</time>
      </trkpt>
      <trkpt lat="45.07727" lon="5.57322">
        <ele>1100.85</ele>
        <time>2019-06-23T09:38:32Z</time>
      </trkpt>
      <trkpt lat="45.07746" lon="5.57308">
        <ele>1101.33</ele>
        <time>2019-06-23T09:38:40Z</time>
      </trkpt>
      <trkpt lat="45.07748" lon="5.57308">
        <ele>1101.33</ele>
        <time>2019-06-23T09:38:41Z</time>
      </trkpt>
      <trkpt lat="45.07748" lon="5.57309">
        <ele>1101.33</ele>
        <time>2019-06-23T09:38:42Z</time>
      </trkpt>
      <trkpt lat="45.07749" lon="5.57311">
        <ele>1101.33</ele>
        <time>2019-06-23T09:38:43Z</time>
      </trkpt>
      <trkpt lat="45.07749" lon="5.57313">
        <ele>1101.33</ele>
        <time>2019-06-23T09:38:44Z</time>
      </trkpt>
      <trkpt lat="45.07752" lon="5.57315">
        <ele>1101.81</ele>
        <time>2019-06-23T09:39:00Z</time>
      </trkpt>
      <trkpt lat="45.07753" lon="5.57314">
        <ele>1101.81</ele>
        <time>2019-06-23T09:39:23Z</time>
      </trkpt>
      <trkpt lat="45.07753" lon="5.57312">
        <ele>1101.81</ele>
        <time>2019-06-23T09:39:36Z</time>
      </trkpt>
      <trkpt lat="45.07755" lon="5.57309">
        <ele>1101.81</ele>
        <time>2019-06-23T09:39:38Z</time>
      </trkpt>
      <trkpt lat="45.07756" lon="5.57308">
        <ele>1101.81</ele>
        <time>2019-06-23T09:39:39Z</time>
      </trkpt>
      <trkpt lat="45.07758" lon="5.57308">
        <ele>1101.81</ele>
        <time>2019-06-23T09:39:40Z</time>
      </trkpt>
      <trkpt lat="45.0776" lon="5.57308">
        <ele>1101.81</ele>
        <time>2019-06-23T09:39:41Z</time>
      </trkpt>
      <trkpt lat="45.07762" lon="5.57308">
        <ele>1101.81</ele>
        <time>2019-06-23T09:39:42Z</time>
      </trkpt>
      <trkpt lat="45.07764" lon="5.57309">
        <ele>1101.81</ele>
        <time>2019-06-23T09:39:43Z</time>
      </trkpt>
      <trkpt lat="45.07796" lon="5.57305">
        <ele>1102.77</ele>
        <time>2019-06-23T09:39:56Z</time>
      </trkpt>
      <trkpt lat="45.07829" lon="5.57287">
        <ele>1101.81</ele>
        <time>2019-06-23T09:40:09Z</time>
      </trkpt>
      <trkpt lat="45.07835" lon="5.57289">
        <ele>1100.85</ele>
        <time>2019-06-23T09:40:11Z</time>
      </trkpt>
      <trkpt lat="45.07837" lon="5.57291">
        <ele>1100.85</ele>
        <time>2019-06-23T09:40:12Z</time>
      </trkpt>
      <trkpt lat="45.0784" lon="5.57292">
        <ele>1100.85</ele>
        <time>2019-06-23T09:40:13Z</time>
      </trkpt>
      <trkpt lat="45.07867" lon="5.57296">
        <ele>1100.37</ele>
        <time>2019-06-23T09:40:23Z</time>
      </trkpt>
      <trkpt lat="45.0787" lon="5.57296">
        <ele>1100.37</ele>
        <time>2019-06-23T09:40:25Z</time>
      </trkpt>
      <trkpt lat="45.07871" lon="5.57298">
        <ele>1100.37</ele>
        <time>2019-06-23T09:40:26Z</time>
      </trkpt>
      <trkpt lat="45.07872" lon="5.57299">
        <ele>1099.89</ele>
        <time>2019-06-23T09:40:27Z</time>
      </trkpt>
      <trkpt lat="45.07873" lon="5.57298">
        <ele>1100.37</ele>
        <time>2019-06-23T09:40:41Z</time>
      </trkpt>
      <trkpt lat="45.07874" lon="5.57301">
        <ele>1099.89</ele>
        <time>2019-06-23T09:40:58Z</time>
      </trkpt>
      <trkpt lat="45.07876" lon="5.57298">
        <ele>1099.89</ele>
        <time>2019-06-23T09:41:12Z</time>
      </trkpt>
      <trkpt lat="45.07877" lon="5.57299">
        <ele>1099.89</ele>
        <time>2019-06-23T09:41:18Z</time>
      </trkpt>
      <trkpt lat="45.07879" lon="5.573">
        <ele>1099.89</ele>
        <time>2019-06-23T09:41:19Z</time>
      </trkpt>
      <trkpt lat="45.079" lon="5.57297">
        <ele>1096.52</ele>
        <time>2019-06-23T09:41:31Z</time>
      </trkpt>
      <trkpt lat="45.07918" lon="5.5729">
        <ele>1093.16</ele>
        <time>2019-06-23T09:41:42Z</time>
      </trkpt>
      <trkpt lat="45.07934" lon="5.57281">
        <ele>1091.71</ele>
        <time>2019-06-23T09:41:55Z</time>
      </trkpt>
      <trkpt lat="45.07936" lon="5.57277">
        <ele>1091.23</ele>
        <time>2019-06-23T09:42:09Z</time>
      </trkpt>
      <trkpt lat="45.07938" lon="5.57276">
        <ele>1090.75</ele>
        <time>2019-06-23T09:42:39Z</time>
      </trkpt>
      <trkpt lat="45.07955" lon="5.57264">
        <ele>1088.35</ele>
        <time>2019-06-23T09:42:54Z</time>
      </trkpt>
      <trkpt lat="45.07967" lon="5.57242">
        <ele>1084.99</ele>
        <time>2019-06-23T09:43:05Z</time>
      </trkpt>
      <trkpt lat="45.07965" lon="5.57218">
        <ele>1081.62</ele>
        <time>2019-06-23T09:43:16Z</time>
      </trkpt>
      <trkpt lat="45.07947" lon="5.57183">
        <ele>1078.26</ele>
        <time>2019-06-23T09:43:28Z</time>
      </trkpt>
      <trkpt lat="45.07929" lon="5.57156">
        <ele>1076.33</ele>
        <time>2019-06-23T09:43:39Z</time>
      </trkpt>
      <trkpt lat="45.07931" lon="5.57152">
        <ele>1075.37</ele>
        <time>2019-06-23T09:43:41Z</time>
      </trkpt>
      <trkpt lat="45.07945" lon="5.57117">
        <ele>1072.01</ele>
        <time>2019-06-23T09:43:53Z</time>
      </trkpt>
      <trkpt lat="45.0796" lon="5.57077">
        <ele>1068.64</ele>
        <time>2019-06-23T09:44:05Z</time>
      </trkpt>
      <trkpt lat="45.07976" lon="5.57035">
        <ele>1065.28</ele>
        <time>2019-06-23T09:44:18Z</time>
      </trkpt>
      <trkpt lat="45.07995" lon="5.56987">
        <ele>1061.43</ele>
        <time>2019-06-23T09:44:34Z</time>
      </trkpt>
      <trkpt lat="45.07996" lon="5.56984">
        <ele>1061.91</ele>
        <time>2019-06-23T09:44:44Z</time>
      </trkpt>
      <trkpt lat="45.08011" lon="5.56951">
        <ele>1058.07</ele>
        <time>2019-06-23T09:44:58Z</time>
      </trkpt>
      <trkpt lat="45.08025" lon="5.56927">
        <ele>1055.18</ele>
        <time>2019-06-23T09:45:08Z</time>
      </trkpt>
      <trkpt lat="45.08042" lon="5.56897">
        <ele>1051.82</ele>
        <time>2019-06-23T09:45:22Z</time>
      </trkpt>
      <trkpt lat="45.08054" lon="5.56875">
        <ele>1049.42</ele>
        <time>2019-06-23T09:45:33Z</time>
      </trkpt>
      <trkpt lat="45.08064" lon="5.56852">
        <ele>1046.05</ele>
        <time>2019-06-23T09:45:46Z</time>
      </trkpt>
      <trkpt lat="45.08079" lon="5.56815">
        <ele>1044.13</ele>
        <time>2019-06-23T09:46:03Z</time>
      </trkpt>
      <trkpt lat="45.08082" lon="5.56811">
        <ele>1043.65</ele>
        <time>2019-06-23T09:46:14Z</time>
      </trkpt>
      <trkpt lat="45.08087" lon="5.56803">
        <ele>1041.73</ele>
        <time>2019-06-23T09:46:35Z</time>
      </trkpt>
      <trkpt lat="45.08089" lon="5.56797">
        <ele>1040.76</ele>
        <time>2019-06-23T09:46:48Z</time>
      </trkpt>
      <trkpt lat="45.08094" lon="5.56788">
        <ele>1039.32</ele>
        <time>2019-06-23T09:47:02Z</time>
      </trkpt>
      <trkpt lat="45.08111" lon="5.56761">
        <ele>1035.96</ele>
        <time>2019-06-23T09:47:17Z</time>
      </trkpt>
      <trkpt lat="45.08134" lon="5.56712">
        <ele>1034.04</ele>
        <time>2019-06-23T09:47:34Z</time>
      </trkpt>
      <trkpt lat="45.08163" lon="5.56654">
        <ele>1031.15</ele>
        <time>2019-06-23T09:47:51Z</time>
      </trkpt>
      <trkpt lat="45.08184" lon="5.5661">
        <ele>1030.67</ele>
        <time>2019-06-23T09:48:05Z</time>
      </trkpt>
      <trkpt lat="45.08213" lon="5.56566">
        <ele>1030.19</ele>
        <time>2019-06-23T09:48:22Z</time>
      </trkpt>
      <trkpt lat="45.08232" lon="5.56575">
        <ele>1028.27</ele>
        <time>2019-06-23T09:48:33Z</time>
      </trkpt>
      <trkpt lat="45.08243" lon="5.56605">
        <ele>1024.9</ele>
        <time>2019-06-23T09:48:41Z</time>
      </trkpt>
      <trkpt lat="45.08271" lon="5.56677">
        <ele>1022.02</ele>
        <time>2019-06-23T09:48:51Z</time>
      </trkpt>
      <trkpt lat="45.08308" lon="5.56721">
        <ele>1022.02</ele>
        <time>2019-06-23T09:49:03Z</time>
      </trkpt>
      <trkpt lat="45.0831" lon="5.56719">
        <ele>1022.02</ele>
        <time>2019-06-23T09:49:04Z</time>
      </trkpt>
      <trkpt lat="45.08312" lon="5.56717">
        <ele>1022.98</ele>
        <time>2019-06-23T09:49:05Z</time>
      </trkpt>
      <trkpt lat="45.08314" lon="5.56715">
        <ele>1023.46</ele>
        <time>2019-06-23T09:49:06Z</time>
      </trkpt>
      <trkpt lat="45.08315" lon="5.56712">
        <ele>1023.46</ele>
        <time>2019-06-23T09:49:07Z</time>
      </trkpt>
      <trkpt lat="45.08316" lon="5.5671">
        <ele>1023.46</ele>
        <time>2019-06-23T09:49:08Z</time>
      </trkpt>
      <trkpt lat="45.08318" lon="5.56708">
        <ele>1023.94</ele>
        <time>2019-06-23T09:49:09Z</time>
      </trkpt>
      <trkpt lat="45.08347" lon="5.56674">
        <ele>1025.86</ele>
        <time>2019-06-23T09:49:25Z</time>
      </trkpt>
      <trkpt lat="45.08377" lon="5.56664">
        <ele>1027.79</ele>
        <time>2019-06-23T09:49:39Z</time>
      </trkpt>
      <trkpt lat="45.08409" lon="5.56666">
        <ele>1029.71</ele>
        <time>2019-06-23T09:49:55Z</time>
      </trkpt>
      <trkpt lat="45.08425" lon="5.56662">
        <ele>1028.27</ele>
        <time>2019-06-23T09:50:00Z</time>
      </trkpt>
      <trkpt lat="45.08429" lon="5.56659">
        <ele>1027.79</ele>
        <time>2019-06-23T09:50:01Z</time>
      </trkpt>
      <trkpt lat="45.08433" lon="5.56656">
        <ele>1027.79</ele>
        <time>2019-06-23T09:50:02Z</time>
      </trkpt>
      <trkpt lat="45.08437" lon="5.56652">
        <ele>1027.79</ele>
        <time>2019-06-23T09:50:03Z</time>
      </trkpt>
      <trkpt lat="45.0844" lon="5.56648">
        <ele>1027.79</ele>
        <time>2019-06-23T09:50:04Z</time>
      </trkpt>
      <trkpt lat="45.08442" lon="5.56644">
        <ele>1027.79</ele>
        <time>2019-06-23T09:50:05Z</time>
      </trkpt>
      <trkpt lat="45.08443" lon="5.56642">
        <ele>1027.79</ele>
        <time>2019-06-23T09:50:06Z</time>
      </trkpt>
      <trkpt lat="45.08444" lon="5.56638">
        <ele>1027.79</ele>
        <time>2019-06-23T09:50:09Z</time>
      </trkpt>
      <trkpt lat="45.08443" lon="5.56636">
        <ele>1027.79</ele>
        <time>2019-06-23T09:50:10Z</time>
      </trkpt>
      <trkpt lat="45.08444" lon="5.56635">
        <ele>1027.79</ele>
        <time>2019-06-23T09:50:11Z</time>
      </trkpt>
      <trkpt lat="45.08445" lon="5.56633">
        <ele>1027.79</ele>
        <time>2019-06-23T09:50:12Z</time>
      </trkpt>
      <trkpt lat="45.08448" lon="5.56635">
        <ele>1027.79</ele>
        <time>2019-06-23T09:50:24Z</time>
      </trkpt>
      <trkpt lat="45.08447" lon="5.56637">
        <ele>1027.79</ele>
        <time>2019-06-23T09:50:31Z</time>
      </trkpt>
      <trkpt lat="45.08445" lon="5.56655">
        <ele>1029.23</ele>
        <time>2019-06-23T09:50:40Z</time>
      </trkpt>
      <trkpt lat="45.08442" lon="5.56681">
        <ele>1031.15</ele>
        <time>2019-06-23T09:50:50Z</time>
      </trkpt>
      <trkpt lat="45.08441" lon="5.56683">
        <ele>1031.15</ele>
        <time>2019-06-23T09:50:51Z</time>
      </trkpt>
      <trkpt lat="45.08441" lon="5.56685">
        <ele>1031.15</ele>
        <time>2019-06-23T09:50:52Z</time>
      </trkpt>
      <trkpt lat="45.0844" lon="5.56688">
        <ele>1031.63</ele>
        <time>2019-06-23T09:50:53Z</time>
      </trkpt>
      <trkpt lat="45.0844" lon="5.56691">
        <ele>1031.63</ele>
        <time>2019-06-23T09:50:54Z</time>
      </trkpt>
      <trkpt lat="45.0844" lon="5.56694">
        <ele>1032.11</ele>
        <time>2019-06-23T09:50:55Z</time>
      </trkpt>
      <trkpt lat="45.0844" lon="5.56697">
        <ele>1032.11</ele>
        <time>2019-06-23T09:50:56Z</time>
      </trkpt>
      <trkpt lat="45.08439" lon="5.56699">
        <ele>1032.11</ele>
        <time>2019-06-23T09:50:57Z</time>
      </trkpt>
      <trkpt lat="45.08434" lon="5.56749">
        <ele>1034.52</ele>
        <time>2019-06-23T09:51:14Z</time>
      </trkpt>
      <trkpt lat="45.08427" lon="5.56804">
        <ele>1036.92</ele>
        <time>2019-06-23T09:51:32Z</time>
      </trkpt>
      <trkpt lat="45.08438" lon="5.56835">
        <ele>1036.92</ele>
        <time>2019-06-23T09:51:43Z</time>
      </trkpt>
      <trkpt lat="45.08438" lon="5.56833">
        <ele>1036.92</ele>
        <time>2019-06-23T09:51:59Z</time>
      </trkpt>
      <trkpt lat="45.08435" lon="5.56832">
        <ele>1036.92</ele>
        <time>2019-06-23T09:52:23Z</time>
      </trkpt>
      <trkpt lat="45.08436" lon="5.56834">
        <ele>1036.92</ele>
        <time>2019-06-23T09:52:54Z</time>
      </trkpt>
      <trkpt lat="45.08436" lon="5.56829">
        <ele>1036.92</ele>
        <time>2019-06-23T09:53:38Z</time>
      </trkpt>
      <trkpt lat="45.08437" lon="5.56831">
        <ele>1036.92</ele>
        <time>2019-06-23T09:54:05Z</time>
      </trkpt>
      <trkpt lat="45.08439" lon="5.56824">
        <ele>1037.4</ele>
        <time>2019-06-23T09:54:30Z</time>
      </trkpt>
      <trkpt lat="45.0844" lon="5.56823">
        <ele>1037.4</ele>
        <time>2019-06-23T09:55:06Z</time>
      </trkpt>
      <trkpt lat="45.08437" lon="5.56822">
        <ele>1037.4</ele>
        <time>2019-06-23T09:55:54Z</time>
      </trkpt>
      <trkpt lat="45.08435" lon="5.56828">
        <ele>1037.88</ele>
        <time>2019-06-23T09:56:26Z</time>
      </trkpt>
      <trkpt lat="45.08443" lon="5.56843">
        <ele>1036.44</ele>
        <time>2019-06-23T09:56:35Z</time>
      </trkpt>
      <trkpt lat="45.08453" lon="5.56871">
        <ele>1033.07</ele>
        <time>2019-06-23T09:56:44Z</time>
      </trkpt>
      <trkpt lat="45.08459" lon="5.56903">
        <ele>1029.71</ele>
        <time>2019-06-23T09:56:51Z</time>
      </trkpt>
      <trkpt lat="45.08463" lon="5.56918">
        <ele>1028.75</ele>
        <time>2019-06-23T09:56:54Z</time>
      </trkpt>
      <trkpt lat="45.08465" lon="5.56924">
        <ele>1028.27</ele>
        <time>2019-06-23T09:56:55Z</time>
      </trkpt>
      <trkpt lat="45.08468" lon="5.56929">
        <ele>1027.79</ele>
        <time>2019-06-23T09:56:56Z</time>
      </trkpt>
      <trkpt lat="45.08471" lon="5.56935">
        <ele>1027.31</ele>
        <time>2019-06-23T09:56:57Z</time>
      </trkpt>
      <trkpt lat="45.08474" lon="5.5694">
        <ele>1026.83</ele>
        <time>2019-06-23T09:56:58Z</time>
      </trkpt>
      <trkpt lat="45.08478" lon="5.56944">
        <ele>1026.34</ele>
        <time>2019-06-23T09:56:59Z</time>
      </trkpt>
      <trkpt lat="45.08481" lon="5.56949">
        <ele>1026.34</ele>
        <time>2019-06-23T09:57:00Z</time>
      </trkpt>
      <trkpt lat="45.08532" lon="5.57008">
        <ele>1024.9</ele>
        <time>2019-06-23T09:57:12Z</time>
      </trkpt>
      <trkpt lat="45.08537" lon="5.5701">
        <ele>1024.9</ele>
        <time>2019-06-23T09:57:13Z</time>
      </trkpt>
      <trkpt lat="45.08542" lon="5.57012">
        <ele>1024.9</ele>
        <time>2019-06-23T09:57:14Z</time>
      </trkpt>
      <trkpt lat="45.08592" lon="5.5702">
        <ele>1024.9</ele>
        <time>2019-06-23T09:57:26Z</time>
      </trkpt>
      <trkpt lat="45.08644" lon="5.57006">
        <ele>1024.9</ele>
        <time>2019-06-23T09:57:40Z</time>
      </trkpt>
      <trkpt lat="45.0865" lon="5.57003">
        <ele>1026.34</ele>
        <time>2019-06-23T09:57:42Z</time>
      </trkpt>
      <trkpt lat="45.08674" lon="5.56982">
        <ele>1028.27</ele>
        <time>2019-06-23T09:57:56Z</time>
      </trkpt>
      <trkpt lat="45.08692" lon="5.56953">
        <ele>1031.63</ele>
        <time>2019-06-23T09:58:12Z</time>
      </trkpt>
      <trkpt lat="45.08693" lon="5.56949">
        <ele>1032.11</ele>
        <time>2019-06-23T09:58:14Z</time>
      </trkpt>
      <trkpt lat="45.08694" lon="5.56948">
        <ele>1032.11</ele>
        <time>2019-06-23T09:58:15Z</time>
      </trkpt>
      <trkpt lat="45.08695" lon="5.56946">
        <ele>1032.11</ele>
        <time>2019-06-23T09:58:16Z</time>
      </trkpt>
      <trkpt lat="45.08708" lon="5.5692">
        <ele>1035</ele>
        <time>2019-06-23T09:58:31Z</time>
      </trkpt>
      <trkpt lat="45.08709" lon="5.56919">
        <ele>1035</ele>
        <time>2019-06-23T09:58:32Z</time>
      </trkpt>
      <trkpt lat="45.0871" lon="5.56918">
        <ele>1035.48</ele>
        <time>2019-06-23T09:58:33Z</time>
      </trkpt>
      <trkpt lat="45.08715" lon="5.56914">
        <ele>1035.48</ele>
        <time>2019-06-23T09:58:37Z</time>
      </trkpt>
      <trkpt lat="45.08715" lon="5.56912">
        <ele>1035.48</ele>
        <time>2019-06-23T09:58:38Z</time>
      </trkpt>
      <trkpt lat="45.08715" lon="5.56909">
        <ele>1035.48</ele>
        <time>2019-06-23T09:58:39Z</time>
      </trkpt>
      <trkpt lat="45.08715" lon="5.56907">
        <ele>1035.48</ele>
        <time>2019-06-23T09:58:40Z</time>
      </trkpt>
      <trkpt lat="45.08715" lon="5.56904">
        <ele>1035.48</ele>
        <time>2019-06-23T09:58:41Z</time>
      </trkpt>
      <trkpt lat="45.08715" lon="5.56901">
        <ele>1035.48</ele>
        <time>2019-06-23T09:58:42Z</time>
      </trkpt>
      <trkpt lat="45.08715" lon="5.56899">
        <ele>1035.48</ele>
        <time>2019-06-23T09:58:43Z</time>
      </trkpt>
      <trkpt lat="45.08713" lon="5.56867">
        <ele>1032.11</ele>
        <time>2019-06-23T09:58:54Z</time>
      </trkpt>
      <trkpt lat="45.08713" lon="5.56852">
        <ele>1031.15</ele>
        <time>2019-06-23T09:59:07Z</time>
      </trkpt>
      <trkpt lat="45.08712" lon="5.56855">
        <ele>1031.15</ele>
        <time>2019-06-23T09:59:18Z</time>
      </trkpt>
      <trkpt lat="45.08712" lon="5.56857">
        <ele>1031.15</ele>
        <time>2019-06-23T09:59:19Z</time>
      </trkpt>
      <trkpt lat="45.08712" lon="5.56858">
        <ele>1031.15</ele>
        <time>2019-06-23T09:59:20Z</time>
      </trkpt>
      <trkpt lat="45.08711" lon="5.56871">
        <ele>1032.11</ele>
        <time>2019-06-23T09:59:27Z</time>
      </trkpt>
      <trkpt lat="45.08711" lon="5.56873">
        <ele>1032.11</ele>
        <time>2019-06-23T09:59:28Z</time>
      </trkpt>
      <trkpt lat="45.08712" lon="5.56914">
        <ele>1035</ele>
        <time>2019-06-23T09:59:47Z</time>
      </trkpt>
      <trkpt lat="45.08717" lon="5.56941">
        <ele>1036.92</ele>
        <time>2019-06-23T09:59:59Z</time>
      </trkpt>
      <trkpt lat="45.08718" lon="5.56942">
        <ele>1036.92</ele>
        <time>2019-06-23T10:00:00Z</time>
      </trkpt>
      <trkpt lat="45.08721" lon="5.56943">
        <ele>1036.92</ele>
        <time>2019-06-23T10:00:03Z</time>
      </trkpt>
      <trkpt lat="45.08723" lon="5.56941">
        <ele>1036.92</ele>
        <time>2019-06-23T10:00:05Z</time>
      </trkpt>
      <trkpt lat="45.08723" lon="5.56939">
        <ele>1036.92</ele>
        <time>2019-06-23T10:00:06Z</time>
      </trkpt>
      <trkpt lat="45.08724" lon="5.56938">
        <ele>1036.92</ele>
        <time>2019-06-23T10:00:07Z</time>
      </trkpt>
      <trkpt lat="45.08725" lon="5.56936">
        <ele>1037.4</ele>
        <time>2019-06-23T10:00:08Z</time>
      </trkpt>
      <trkpt lat="45.08725" lon="5.56934">
        <ele>1037.4</ele>
        <time>2019-06-23T10:00:09Z</time>
      </trkpt>
      <trkpt lat="45.08741" lon="5.569">
        <ele>1037.4</ele>
        <time>2019-06-23T10:00:24Z</time>
      </trkpt>
      <trkpt lat="45.08758" lon="5.5687">
        <ele>1035.96</ele>
        <time>2019-06-23T10:00:33Z</time>
      </trkpt>
      <trkpt lat="45.08775" lon="5.5682">
        <ele>1034.52</ele>
        <time>2019-06-23T10:00:44Z</time>
      </trkpt>
      <trkpt lat="45.08778" lon="5.56817">
        <ele>1034.52</ele>
        <time>2019-06-23T10:00:45Z</time>
      </trkpt>
      <trkpt lat="45.08781" lon="5.56816">
        <ele>1034.52</ele>
        <time>2019-06-23T10:00:46Z</time>
      </trkpt>
      <trkpt lat="45.08805" lon="5.56822">
        <ele>1034.52</ele>
        <time>2019-06-23T10:00:58Z</time>
      </trkpt>
      <trkpt lat="45.08847" lon="5.56818">
        <ele>1033.55</ele>
        <time>2019-06-23T10:01:12Z</time>
      </trkpt>
      <trkpt lat="45.08909" lon="5.5682">
        <ele>1032.59</ele>
        <time>2019-06-23T10:01:28Z</time>
      </trkpt>
      <trkpt lat="45.08962" lon="5.56828">
        <ele>1032.59</ele>
        <time>2019-06-23T10:01:43Z</time>
      </trkpt>
      <trkpt lat="45.09009" lon="5.56824">
        <ele>1031.63</ele>
        <time>2019-06-23T10:01:58Z</time>
      </trkpt>
      <trkpt lat="45.09027" lon="5.56793">
        <ele>1030.67</ele>
        <time>2019-06-23T10:02:10Z</time>
      </trkpt>
      <trkpt lat="45.09068" lon="5.56747">
        <ele>1028.27</ele>
        <time>2019-06-23T10:02:25Z</time>
      </trkpt>
      <trkpt lat="45.09107" lon="5.56702">
        <ele>1026.34</ele>
        <time>2019-06-23T10:02:40Z</time>
      </trkpt>
      <trkpt lat="45.09142" lon="5.56655">
        <ele>1022.98</ele>
        <time>2019-06-23T10:02:53Z</time>
      </trkpt>
      <trkpt lat="45.09181" lon="5.56603">
        <ele>1020.1</ele>
        <time>2019-06-23T10:03:06Z</time>
      </trkpt>
      <trkpt lat="45.09231" lon="5.56537">
        <ele>1017.21</ele>
        <time>2019-06-23T10:03:22Z</time>
      </trkpt>
      <trkpt lat="45.09263" lon="5.5648">
        <ele>1016.73</ele>
        <time>2019-06-23T10:03:36Z</time>
      </trkpt>
      <trkpt lat="45.09278" lon="5.56469">
        <ele>1016.73</ele>
        <time>2019-06-23T10:03:49Z</time>
      </trkpt>
      <trkpt lat="45.09282" lon="5.56465">
        <ele>1016.73</ele>
        <time>2019-06-23T10:03:57Z</time>
      </trkpt>
      <trkpt lat="45.0928" lon="5.56464">
        <ele>1016.73</ele>
        <time>2019-06-23T10:03:58Z</time>
      </trkpt>
      <trkpt lat="45.09279" lon="5.56464">
        <ele>1016.73</ele>
        <time>2019-06-23T10:03:59Z</time>
      </trkpt>
      <trkpt lat="45.09277" lon="5.56464">
        <ele>1016.73</ele>
        <time>2019-06-23T10:04:00Z</time>
      </trkpt>
      <trkpt lat="45.09276" lon="5.56464">
        <ele>1016.73</ele>
        <time>2019-06-23T10:04:01Z</time>
      </trkpt>
      <trkpt lat="45.09275" lon="5.56465">
        <ele>1016.73</ele>
        <time>2019-06-23T10:04:02Z</time>
      </trkpt>
      <trkpt lat="45.09273" lon="5.56466">
        <ele>1016.73</ele>
        <time>2019-06-23T10:04:03Z</time>
      </trkpt>
      <trkpt lat="45.09272" lon="5.56467">
        <ele>1016.73</ele>
        <time>2019-06-23T10:04:04Z</time>
      </trkpt>
      <trkpt lat="45.09265" lon="5.56472">
        <ele>1016.73</ele>
        <time>2019-06-23T10:04:10Z</time>
      </trkpt>
      <trkpt lat="45.09263" lon="5.56472">
        <ele>1016.73</ele>
        <time>2019-06-23T10:04:11Z</time>
      </trkpt>
      <trkpt lat="45.09262" lon="5.5647">
        <ele>1016.73</ele>
        <time>2019-06-23T10:04:12Z</time>
      </trkpt>
      <trkpt lat="45.09261" lon="5.56468">
        <ele>1016.73</ele>
        <time>2019-06-23T10:04:13Z</time>
      </trkpt>
      <trkpt lat="45.09261" lon="5.56467">
        <ele>1016.25</ele>
        <time>2019-06-23T10:04:14Z</time>
      </trkpt>
      <trkpt lat="45.09262" lon="5.56466">
        <ele>1016.25</ele>
        <time>2019-06-23T10:04:15Z</time>
      </trkpt>
      <trkpt lat="45.09263" lon="5.56463">
        <ele>1016.25</ele>
        <time>2019-06-23T10:04:16Z</time>
      </trkpt>
      <trkpt lat="45.09279" lon="5.56432">
        <ele>1015.29</ele>
        <time>2019-06-23T10:04:30Z</time>
      </trkpt>
      <trkpt lat="45.09293" lon="5.56407">
        <ele>1013.85</ele>
        <time>2019-06-23T10:04:42Z</time>
      </trkpt>
      <trkpt lat="45.09309" lon="5.56377">
        <ele>1011.44</ele>
        <time>2019-06-23T10:04:53Z</time>
      </trkpt>
      <trkpt lat="45.09318" lon="5.56355">
        <ele>1010</ele>
        <time>2019-06-23T10:05:05Z</time>
      </trkpt>
      <trkpt lat="45.09328" lon="5.56316">
        <ele>1007.6</ele>
        <time>2019-06-23T10:05:18Z</time>
      </trkpt>
      <trkpt lat="45.09353" lon="5.56259">
        <ele>1004.72</ele>
        <time>2019-06-23T10:05:34Z</time>
      </trkpt>
      <trkpt lat="45.09388" lon="5.56192">
        <ele>1001.35</ele>
        <time>2019-06-23T10:05:50Z</time>
      </trkpt>
      <trkpt lat="45.09415" lon="5.5616">
        <ele>1001.35</ele>
        <time>2019-06-23T10:06:02Z</time>
      </trkpt>
      <trkpt lat="45.09436" lon="5.56135">
        <ele>1001.35</ele>
        <time>2019-06-23T10:06:17Z</time>
      </trkpt>
      <trkpt lat="45.09469" lon="5.56104">
        <ele>1000.39</ele>
        <time>2019-06-23T10:06:34Z</time>
      </trkpt>
      <trkpt lat="45.09495" lon="5.56077">
        <ele>998.95</ele>
        <time>2019-06-23T10:06:48Z</time>
      </trkpt>
      <trkpt lat="45.09501" lon="5.56068">
        <ele>998.95</ele>
        <time>2019-06-23T10:06:54Z</time>
      </trkpt>
      <trkpt lat="45.09502" lon="5.56066">
        <ele>998.95</ele>
        <time>2019-06-23T10:06:55Z</time>
      </trkpt>
      <trkpt lat="45.09503" lon="5.56065">
        <ele>998.95</ele>
        <time>2019-06-23T10:06:56Z</time>
      </trkpt>
      <trkpt lat="45.09504" lon="5.56064">
        <ele>998.47</ele>
        <time>2019-06-23T10:06:57Z</time>
      </trkpt>
      <trkpt lat="45.09505" lon="5.56062">
        <ele>998.47</ele>
        <time>2019-06-23T10:06:58Z</time>
      </trkpt>
      <trkpt lat="45.09506" lon="5.5606">
        <ele>997.99</ele>
        <time>2019-06-23T10:06:59Z</time>
      </trkpt>
      <trkpt lat="45.09506" lon="5.56057">
        <ele>997.99</ele>
        <time>2019-06-23T10:07:00Z</time>
      </trkpt>
      <trkpt lat="45.09507" lon="5.56054">
        <ele>997.99</ele>
        <time>2019-06-23T10:07:01Z</time>
      </trkpt>
      <trkpt lat="45.09508" lon="5.56052">
        <ele>997.02</ele>
        <time>2019-06-23T10:07:02Z</time>
      </trkpt>
      <trkpt lat="45.09523" lon="5.55999">
        <ele>994.14</ele>
        <time>2019-06-23T10:07:17Z</time>
      </trkpt>
      <trkpt lat="45.09535" lon="5.55963">
        <ele>992.7</ele>
        <time>2019-06-23T10:07:30Z</time>
      </trkpt>
      <trkpt lat="45.09536" lon="5.55963">
        <ele>992.7</ele>
        <time>2019-06-23T10:07:31Z</time>
      </trkpt>
      <trkpt lat="45.09536" lon="5.55962">
        <ele>992.7</ele>
        <time>2019-06-23T10:07:32Z</time>
      </trkpt>
      <trkpt lat="45.09537" lon="5.55961">
        <ele>992.7</ele>
        <time>2019-06-23T10:07:33Z</time>
      </trkpt>
      <trkpt lat="45.09547" lon="5.55951">
        <ele>990.78</ele>
        <time>2019-06-23T10:07:40Z</time>
      </trkpt>
      <trkpt lat="45.09548" lon="5.5595">
        <ele>990.78</ele>
        <time>2019-06-23T10:07:41Z</time>
      </trkpt>
      <trkpt lat="45.09561" lon="5.55949">
        <ele>989.33</ele>
        <time>2019-06-23T10:07:52Z</time>
      </trkpt>
      <trkpt lat="45.09562" lon="5.55948">
        <ele>989.33</ele>
        <time>2019-06-23T10:07:53Z</time>
      </trkpt>
      <trkpt lat="45.09563" lon="5.55947">
        <ele>988.85</ele>
        <time>2019-06-23T10:07:54Z</time>
      </trkpt>
      <trkpt lat="45.09564" lon="5.55946">
        <ele>988.85</ele>
        <time>2019-06-23T10:07:55Z</time>
      </trkpt>
      <trkpt lat="45.09566" lon="5.55946">
        <ele>988.85</ele>
        <time>2019-06-23T10:07:56Z</time>
      </trkpt>
      <trkpt lat="45.09568" lon="5.55945">
        <ele>988.37</ele>
        <time>2019-06-23T10:07:57Z</time>
      </trkpt>
      <trkpt lat="45.09569" lon="5.55944">
        <ele>988.37</ele>
        <time>2019-06-23T10:07:58Z</time>
      </trkpt>
      <trkpt lat="45.0957" lon="5.55944">
        <ele>988.37</ele>
        <time>2019-06-23T10:07:59Z</time>
      </trkpt>
      <trkpt lat="45.0959" lon="5.55941">
        <ele>987.41</ele>
        <time>2019-06-23T10:08:13Z</time>
      </trkpt>
      <trkpt lat="45.09616" lon="5.55924">
        <ele>985.97</ele>
        <time>2019-06-23T10:08:29Z</time>
      </trkpt>
      <trkpt lat="45.09626" lon="5.5591">
        <ele>985.97</ele>
        <time>2019-06-23T10:08:42Z</time>
      </trkpt>
      <trkpt lat="45.09626" lon="5.55907">
        <ele>985.97</ele>
        <time>2019-06-23T10:08:56Z</time>
      </trkpt>
      <trkpt lat="45.09626" lon="5.55905">
        <ele>985.97</ele>
        <time>2019-06-23T10:08:57Z</time>
      </trkpt>
      <trkpt lat="45.09627" lon="5.55904">
        <ele>985.97</ele>
        <time>2019-06-23T10:08:58Z</time>
      </trkpt>
      <trkpt lat="45.09628" lon="5.55902">
        <ele>985.97</ele>
        <time>2019-06-23T10:08:59Z</time>
      </trkpt>
      <trkpt lat="45.09629" lon="5.55901">
        <ele>985.97</ele>
        <time>2019-06-23T10:09:00Z</time>
      </trkpt>
      <trkpt lat="45.09631" lon="5.55901">
        <ele>985.97</ele>
        <time>2019-06-23T10:09:01Z</time>
      </trkpt>
      <trkpt lat="45.09633" lon="5.55901">
        <ele>985.97</ele>
        <time>2019-06-23T10:09:02Z</time>
      </trkpt>
      <trkpt lat="45.09635" lon="5.55902">
        <ele>985.97</ele>
        <time>2019-06-23T10:09:03Z</time>
      </trkpt>
      <trkpt lat="45.09637" lon="5.55904">
        <ele>985.97</ele>
        <time>2019-06-23T10:09:04Z</time>
      </trkpt>
      <trkpt lat="45.09639" lon="5.55906">
        <ele>985.97</ele>
        <time>2019-06-23T10:09:05Z</time>
      </trkpt>
      <trkpt lat="45.09676" lon="5.55937">
        <ele>985.97</ele>
        <time>2019-06-23T10:09:20Z</time>
      </trkpt>
      <trkpt lat="45.0973" lon="5.55985">
        <ele>985.97</ele>
        <time>2019-06-23T10:09:39Z</time>
      </trkpt>
      <trkpt lat="45.09791" lon="5.56039">
        <ele>985.97</ele>
        <time>2019-06-23T10:09:59Z</time>
      </trkpt>
      <trkpt lat="45.09841" lon="5.56083">
        <ele>986.93</ele>
        <time>2019-06-23T10:10:16Z</time>
      </trkpt>
      <trkpt lat="45.09895" lon="5.56131">
        <ele>987.41</ele>
        <time>2019-06-23T10:10:34Z</time>
      </trkpt>
      <trkpt lat="45.09958" lon="5.56186">
        <ele>987.89</ele>
        <time>2019-06-23T10:10:54Z</time>
      </trkpt>
      <trkpt lat="45.10007" lon="5.5623">
        <ele>987.89</ele>
        <time>2019-06-23T10:11:10Z</time>
      </trkpt>
      <trkpt lat="45.10059" lon="5.56277">
        <ele>988.37</ele>
        <time>2019-06-23T10:11:27Z</time>
      </trkpt>
      <trkpt lat="45.10107" lon="5.5632">
        <ele>989.33</ele>
        <time>2019-06-23T10:11:45Z</time>
      </trkpt>
      <trkpt lat="45.10167" lon="5.56373">
        <ele>990.78</ele>
        <time>2019-06-23T10:12:06Z</time>
      </trkpt>
      <trkpt lat="45.10217" lon="5.56416">
        <ele>992.7</ele>
        <time>2019-06-23T10:12:23Z</time>
      </trkpt>
      <trkpt lat="45.10266" lon="5.56463">
        <ele>992.7</ele>
        <time>2019-06-23T10:12:38Z</time>
      </trkpt>
      <trkpt lat="45.10334" lon="5.56523">
        <ele>990.78</ele>
        <time>2019-06-23T10:12:56Z</time>
      </trkpt>
      <trkpt lat="45.10401" lon="5.56581">
        <ele>989.81</ele>
        <time>2019-06-23T10:13:13Z</time>
      </trkpt>
      <trkpt lat="45.10445" lon="5.56619">
        <ele>991.26</ele>
        <time>2019-06-23T10:13:27Z</time>
      </trkpt>
      <trkpt lat="45.1048" lon="5.56654">
        <ele>991.26</ele>
        <time>2019-06-23T10:13:39Z</time>
      </trkpt>
      <trkpt lat="45.10526" lon="5.56711">
        <ele>989.81</ele>
        <time>2019-06-23T10:13:56Z</time>
      </trkpt>
      <trkpt lat="45.10579" lon="5.56773">
        <ele>989.81</ele>
        <time>2019-06-23T10:14:14Z</time>
      </trkpt>
      <trkpt lat="45.10625" lon="5.56821">
        <ele>990.3</ele>
        <time>2019-06-23T10:14:30Z</time>
      </trkpt>
      <trkpt lat="45.10695" lon="5.56902">
        <ele>989.81</ele>
        <time>2019-06-23T10:14:51Z</time>
      </trkpt>
      <trkpt lat="45.10785" lon="5.57004">
        <ele>989.81</ele>
        <time>2019-06-23T10:15:15Z</time>
      </trkpt>
      <trkpt lat="45.10807" lon="5.5703">
        <ele>991.26</ele>
        <time>2019-06-23T10:15:21Z</time>
      </trkpt>
      <trkpt lat="45.10882" lon="5.57118">
        <ele>991.26</ele>
        <time>2019-06-23T10:15:42Z</time>
      </trkpt>
      <trkpt lat="45.1092" lon="5.57162">
        <ele>992.22</ele>
        <time>2019-06-23T10:15:56Z</time>
      </trkpt>
      <trkpt lat="45.10985" lon="5.57236">
        <ele>992.22</ele>
        <time>2019-06-23T10:16:15Z</time>
      </trkpt>
      <trkpt lat="45.11059" lon="5.5732">
        <ele>992.22</ele>
        <time>2019-06-23T10:16:36Z</time>
      </trkpt>
      <trkpt lat="45.11128" lon="5.57396">
        <ele>993.66</ele>
        <time>2019-06-23T10:16:55Z</time>
      </trkpt>
      <trkpt lat="45.11208" lon="5.57457">
        <ele>993.18</ele>
        <time>2019-06-23T10:17:14Z</time>
      </trkpt>
      <trkpt lat="45.11299" lon="5.57519">
        <ele>993.18</ele>
        <time>2019-06-23T10:17:34Z</time>
      </trkpt>
      <trkpt lat="45.11409" lon="5.57595">
        <ele>993.66</ele>
        <time>2019-06-23T10:17:57Z</time>
      </trkpt>
      <trkpt lat="45.11509" lon="5.57665">
        <ele>994.14</ele>
        <time>2019-06-23T10:18:18Z</time>
      </trkpt>
      <trkpt lat="45.11612" lon="5.57736">
        <ele>994.62</ele>
        <time>2019-06-23T10:18:40Z</time>
      </trkpt>
      <trkpt lat="45.11706" lon="5.57802">
        <ele>995.58</ele>
        <time>2019-06-23T10:19:01Z</time>
      </trkpt>
      <trkpt lat="45.11783" lon="5.57856">
        <ele>996.06</ele>
        <time>2019-06-23T10:19:18Z</time>
      </trkpt>
      <trkpt lat="45.11894" lon="5.5793">
        <ele>996.06</ele>
        <time>2019-06-23T10:19:42Z</time>
      </trkpt>
      <trkpt lat="45.11966" lon="5.57982">
        <ele>997.02</ele>
        <time>2019-06-23T10:19:59Z</time>
      </trkpt>
      <trkpt lat="45.12017" lon="5.58016">
        <ele>997.51</ele>
        <time>2019-06-23T10:20:14Z</time>
      </trkpt>
      <trkpt lat="45.12062" lon="5.58035">
        <ele>997.99</ele>
        <time>2019-06-23T10:20:28Z</time>
      </trkpt>
      <trkpt lat="45.12142" lon="5.58063">
        <ele>998.47</ele>
        <time>2019-06-23T10:20:50Z</time>
      </trkpt>
      <trkpt lat="45.12216" lon="5.58087">
        <ele>998.95</ele>
        <time>2019-06-23T10:21:09Z</time>
      </trkpt>
      <trkpt lat="45.12291" lon="5.58111">
        <ele>998.95</ele>
        <time>2019-06-23T10:21:28Z</time>
      </trkpt>
      <trkpt lat="45.12363" lon="5.58136">
        <ele>999.43</ele>
        <time>2019-06-23T10:21:46Z</time>
      </trkpt>
      <trkpt lat="45.12388" lon="5.58144">
        <ele>999.43</ele>
        <time>2019-06-23T10:21:52Z</time>
      </trkpt>
      <trkpt lat="45.12456" lon="5.58167">
        <ele>1000.87</ele>
        <time>2019-06-23T10:22:10Z</time>
      </trkpt>
      <trkpt lat="45.12495" lon="5.58179">
        <ele>1001.83</ele>
        <time>2019-06-23T10:22:23Z</time>
      </trkpt>
      <trkpt lat="45.12539" lon="5.5821">
        <ele>1001.83</ele>
        <time>2019-06-23T10:22:38Z</time>
      </trkpt>
      <trkpt lat="45.12576" lon="5.58256">
        <ele>1002.79</ele>
        <time>2019-06-23T10:22:53Z</time>
      </trkpt>
      <trkpt lat="45.12607" lon="5.58324">
        <ele>1004.72</ele>
        <time>2019-06-23T10:23:11Z</time>
      </trkpt>
      <trkpt lat="45.12644" lon="5.58407">
        <ele>1006.16</ele>
        <time>2019-06-23T10:23:31Z</time>
      </trkpt>
      <trkpt lat="45.12666" lon="5.58433">
        <ele>1006.64</ele>
        <time>2019-06-23T10:23:41Z</time>
      </trkpt>
      <trkpt lat="45.12667" lon="5.58433">
        <ele>1007.6</ele>
        <time>2019-06-23T10:23:42Z</time>
      </trkpt>
      <trkpt lat="45.12668" lon="5.58433">
        <ele>1007.6</ele>
        <time>2019-06-23T10:23:43Z</time>
      </trkpt>
      <trkpt lat="45.12669" lon="5.58434">
        <ele>1007.6</ele>
        <time>2019-06-23T10:23:44Z</time>
      </trkpt>
      <trkpt lat="45.12668" lon="5.58435">
        <ele>1007.6</ele>
        <time>2019-06-23T10:23:46Z</time>
      </trkpt>
      <trkpt lat="45.12662" lon="5.58434">
        <ele>1007.6</ele>
        <time>2019-06-23T10:23:50Z</time>
      </trkpt>
      <trkpt lat="45.1266" lon="5.58435">
        <ele>1007.6</ele>
        <time>2019-06-23T10:23:51Z</time>
      </trkpt>
      <trkpt lat="45.12658" lon="5.58437">
        <ele>1007.6</ele>
        <time>2019-06-23T10:23:52Z</time>
      </trkpt>
      <trkpt lat="45.12658" lon="5.5844">
        <ele>1007.6</ele>
        <time>2019-06-23T10:23:53Z</time>
      </trkpt>
      <trkpt lat="45.12658" lon="5.58442">
        <ele>1007.6</ele>
        <time>2019-06-23T10:23:54Z</time>
      </trkpt>
      <trkpt lat="45.12658" lon="5.58445">
        <ele>1007.6</ele>
        <time>2019-06-23T10:23:55Z</time>
      </trkpt>
      <trkpt lat="45.12662" lon="5.58489">
        <ele>1007.6</ele>
        <time>2019-06-23T10:24:06Z</time>
      </trkpt>
      <trkpt lat="45.12679" lon="5.58549">
        <ele>1009.52</ele>
        <time>2019-06-23T10:24:21Z</time>
      </trkpt>
      <trkpt lat="45.12703" lon="5.5861">
        <ele>1010</ele>
        <time>2019-06-23T10:24:36Z</time>
      </trkpt>
      <trkpt lat="45.12725" lon="5.58659">
        <ele>1010.48</ele>
        <time>2019-06-23T10:24:50Z</time>
      </trkpt>
      <trkpt lat="45.12763" lon="5.58687">
        <ele>1011.44</ele>
        <time>2019-06-23T10:25:03Z</time>
      </trkpt>
      <trkpt lat="45.12801" lon="5.58712">
        <ele>1012.41</ele>
        <time>2019-06-23T10:25:15Z</time>
      </trkpt>
      <trkpt lat="45.12843" lon="5.58744">
        <ele>1012.41</ele>
        <time>2019-06-23T10:25:30Z</time>
      </trkpt>
      <trkpt lat="45.1285" lon="5.58749">
        <ele>1012.41</ele>
        <time>2019-06-23T10:25:33Z</time>
      </trkpt>
      <trkpt lat="45.12851" lon="5.58753">
        <ele>1012.41</ele>
        <time>2019-06-23T10:25:34Z</time>
      </trkpt>
      <trkpt lat="45.12851" lon="5.58755">
        <ele>1012.41</ele>
        <time>2019-06-23T10:25:35Z</time>
      </trkpt>
      <trkpt lat="45.1284" lon="5.58794">
        <ele>1013.37</ele>
        <time>2019-06-23T10:25:47Z</time>
      </trkpt>
      <trkpt lat="45.1284" lon="5.58798">
        <ele>1013.37</ele>
        <time>2019-06-23T10:25:48Z</time>
      </trkpt>
      <trkpt lat="45.12823" lon="5.5883">
        <ele>1013.85</ele>
        <time>2019-06-23T10:26:02Z</time>
      </trkpt>
      <trkpt lat="45.12822" lon="5.58832">
        <ele>1014.33</ele>
        <time>2019-06-23T10:26:03Z</time>
      </trkpt>
      <trkpt lat="45.12821" lon="5.58835">
        <ele>1014.33</ele>
        <time>2019-06-23T10:26:04Z</time>
      </trkpt>
      <trkpt lat="45.12818" lon="5.58841">
        <ele>1014.81</ele>
        <time>2019-06-23T10:26:15Z</time>
      </trkpt>
      <trkpt lat="45.12822" lon="5.5884">
        <ele>1014.81</ele>
        <time>2019-06-23T10:26:28Z</time>
      </trkpt>
      <trkpt lat="45.12824" lon="5.58845">
        <ele>1014.81</ele>
        <time>2019-06-23T10:26:32Z</time>
      </trkpt>
      <trkpt lat="45.12823" lon="5.58852">
        <ele>1014.81</ele>
        <time>2019-06-23T10:26:37Z</time>
      </trkpt>
      <trkpt lat="45.12819" lon="5.5887">
        <ele>1015.77</ele>
        <time>2019-06-23T10:26:54Z</time>
      </trkpt>
      <trkpt lat="45.12818" lon="5.58874">
        <ele>1015.77</ele>
        <time>2019-06-23T10:27:00Z</time>
      </trkpt>
      <trkpt lat="45.12817" lon="5.58874">
        <ele>1015.77</ele>
        <time>2019-06-23T10:27:01Z</time>
      </trkpt>
      <trkpt lat="45.12816" lon="5.58875">
        <ele>1015.77</ele>
        <time>2019-06-23T10:27:02Z</time>
      </trkpt>
      <trkpt lat="45.12814" lon="5.58876">
        <ele>1015.77</ele>
        <time>2019-06-23T10:27:03Z</time>
      </trkpt>
      <trkpt lat="45.12813" lon="5.58877">
        <ele>1015.77</ele>
        <time>2019-06-23T10:27:04Z</time>
      </trkpt>
      <trkpt lat="45.12796" lon="5.58906">
        <ele>1016.25</ele>
        <time>2019-06-23T10:27:18Z</time>
      </trkpt>
      <trkpt lat="45.12793" lon="5.58907">
        <ele>1016.25</ele>
        <time>2019-06-23T10:27:30Z</time>
      </trkpt>
      <trkpt lat="45.12791" lon="5.58919">
        <ele>1016.25</ele>
        <time>2019-06-23T10:27:43Z</time>
      </trkpt>
      <trkpt lat="45.12789" lon="5.58931">
        <ele>1017.21</ele>
        <time>2019-06-23T10:27:57Z</time>
      </trkpt>
      <trkpt lat="45.12791" lon="5.58933">
        <ele>1017.21</ele>
        <time>2019-06-23T10:28:21Z</time>
      </trkpt>
      <trkpt lat="45.12791" lon="5.58935">
        <ele>1017.21</ele>
        <time>2019-06-23T10:28:53Z</time>
      </trkpt>
      <trkpt lat="45.12792" lon="5.58933">
        <ele>1017.69</ele>
        <time>2019-06-23T10:29:43Z</time>
      </trkpt>
      <trkpt lat="45.12791" lon="5.58936">
        <ele>1017.69</ele>
        <time>2019-06-23T10:30:37Z</time>
      </trkpt>
      <trkpt lat="45.12789" lon="5.58936">
        <ele>1018.17</ele>
        <time>2019-06-23T10:31:15Z</time>
      </trkpt>
      <trkpt lat="45.1279" lon="5.5893">
        <ele>1018.17</ele>
        <time>2019-06-23T10:31:42Z</time>
      </trkpt>
      <trkpt lat="45.1279" lon="5.5893">
        <ele>1019.13</ele>
        <time>2019-06-23T10:31:54Z</time>
      </trkpt>
      <trkpt lat="45.12788" lon="5.58934">
        <ele>1018.17</ele>
        <time>2019-06-23T10:32:25Z</time>
      </trkpt>
      <trkpt lat="45.12788" lon="5.58934">
        <ele>1018.17</ele>
        <time>2019-06-23T10:32:49Z</time>
      </trkpt>
    </trkseg>
  </trk>
</gpx>